Observation data for Palo Duro Canyon State Park Rim on 08/13/2019      Previous  Date       Current Mesonet Observations  Soil Data  Daily Summary Page  Observations in Plain Language
KPD1 130500Z 06010G17KT 23/18 A3003 RMK A01 T02270178  RH  074%=      5-min Rain = 0
KPD1 130501Z 06011KT 23/18 A3003 RMK A01 T02270178  RH  074%=      5-min Rain = 0
KPD1 130502Z 07010G17KT 23/18 A3003 RMK A01 T02280178  RH  074%=      5-min Rain = 0
KPD1 130503Z 06013G18KT 23/18 A3003 RMK A01 T02270178  RH  074%=      5-min Rain = 0
KPD1 130504Z 07010KT 23/18 A3003 RMK A01 T02280178  RH  073%=      5-min Rain = 0
KPD1 130505Z 07006KT 23/18 A3003 RMK A01 T02280178  RH  073%=      5-min Rain = 0
KPD1 130506Z 07009KT 23/18 A3003 RMK A01 T02280178  RH  074%=      5-min Rain = 0
KPD1 130507Z 07009G16KT 23/18 A3003 RMK A01 T02270178  RH  074%=      5-min Rain = 0
KPD1 130508Z 07007KT 23/18 A3003 RMK A01 T02270178  RH  074%=      5-min Rain = 0
KPD1 130509Z 08008G14KT 23/18 A3003 RMK A01 T02270178  RH  074%=      5-min Rain = 0
KPD1 130510Z 08009KT 23/18 A3003 RMK A01 T02270177  RH  073%=      5-min Rain = 0
KPD1 130511Z 07006KT 23/18 A3003 RMK A01 T02270177  RH  073%=      5-min Rain = 0
KPD1 130512Z 08009G14KT 23/18 A3003 RMK A01 T02270177  RH  073%=      5-min Rain = 0
KPD1 130513Z 07012G17KT 23/18 A3003 RMK A01 T02270176  RH  073%=      5-min Rain = 0
KPD1 130514Z 06013G21KT 23/18 A3003 RMK A01 T02280175  RH  072%=      5-min Rain = 0
KPD1 130515Z 06010KT 23/18 A3003 RMK A01 T02290176  RH  072%=      5-min Rain = 0
KPD1 130516Z 06013G18KT 23/18 A3003 RMK A01 T02290175  RH  071%=      5-min Rain = 0
KPD1 130517Z 07010KT 23/18 A3003 RMK A01 T02300175  RH  071%=      5-min Rain = 0
KPD1 130518Z 06010G16KT 23/17 A3003 RMK A01 T02300174  RH  071%=      5-min Rain = 0
KPD1 130519Z 05008G13KT 23/17 A3003 RMK A01 T02300174  RH  071%=      5-min Rain = 0
KPD1 130520Z 07008KT 23/18 A3003 RMK A01 T02310175  RH  071%=      5-min Rain = 0
KPD1 130521Z 06010KT 23/18 A3003 RMK A01 T02300175  RH  071%=      5-min Rain = 0
KPD1 130522Z 06008KT 23/18 A3003 RMK A01 T02300175  RH  071%=      5-min Rain = 0
KPD1 130523Z 07010G17KT 23/18 A3003 RMK A01 T02300175  RH  071%=      5-min Rain = 0
KPD1 130524Z 07005KT 23/17 A3003 RMK A01 T02300174  RH  071%=      5-min Rain = 0
KPD1 130525Z 07008G18KT 23/17 A3003 RMK A01 T02300174  RH  071%=      5-min Rain = 0
KPD1 130526Z 07011G19KT 23/17 A3003 RMK A01 T02300174  RH  071%=      5-min Rain = 0
KPD1 130527Z 07010G17KT 23/17 A3003 RMK A01 T02300173  RH  070%=      5-min Rain = 0
KPD1 130528Z 06007G12KT 23/17 A3003 RMK A01 T02300173  RH  070%=      5-min Rain = 0
KPD1 130529Z 07009KT 23/17 A3003 RMK A01 T02300174  RH  070%=      5-min Rain = 0
KPD1 130530Z 07006G11KT 23/17 A3003 RMK A01 T02300173  RH  070%=      5-min Rain = 0
KPD1 130531Z 08008G13KT 23/17 A3003 RMK A01 T02300173  RH  070%=      5-min Rain = 0
KPD1 130532Z 08009G14KT 23/17 A3003 RMK A01 T02300172  RH  070%=      5-min Rain = 0
KPD1 130533Z 09010KT 23/17 A3003 RMK A01 T02310172  RH  070%=      5-min Rain = 0
KPD1 130534Z 09007G14KT 23/17 A3003 RMK A01 T02310172  RH  069%=      5-min Rain = 0
KPD1 130535Z 10013G18KT 23/17 A3003 RMK A01 T02310172  RH  069%=      5-min Rain = 0
KPD1 130536Z 09011G16KT 23/17 A3003 RMK A01 T02320172  RH  069%=      5-min Rain = 0
KPD1 130537Z 11009G16KT 23/17 A3004 RMK A01 T02320172  RH  069%=      5-min Rain = 0
KPD1 130538Z 09009G18KT 23/17 A3004 RMK A01 T02320173  RH  069%=      5-min Rain = 0
KPD1 130539Z 10009G15KT 23/17 A3004 RMK A01 T02320172  RH  069%=      5-min Rain = 0
KPD1 130540Z 11006KT 23/17 A3004 RMK A01 T02320173  RH  069%=      5-min Rain = 0
KPD1 130541Z 10010G17KT 23/17 A3004 RMK A01 T02310173  RH  070%=      5-min Rain = 0
KPD1 130542Z 11010KT 23/17 A3004 RMK A01 T02310173  RH  070%=      5-min Rain = 0
KPD1 130543Z 11009KT 23/17 A3004 RMK A01 T02310173  RH  070%=      5-min Rain = 0
KPD1 130544Z 11009G16KT 23/17 A3004 RMK A01 T02300172  RH  070%=      5-min Rain = 0
KPD1 130545Z 10011G17KT 23/17 A3004 RMK A01 T02310173  RH  069%=      5-min Rain = 0
KPD1 130546Z 10010KT 23/17 A3004 RMK A01 T02320172  RH  069%=      5-min Rain = 0
KPD1 130547Z 12009G15KT 23/17 A3004 RMK A01 T02320172  RH  069%=      5-min Rain = 0
KPD1 130548Z 13007KT 23/17 A3004 RMK A01 T02320173  RH  069%=      5-min Rain = 0
KPD1 130549Z 11007KT 23/17 A3004 RMK A01 T02320173  RH  069%=      5-min Rain = 0
KPD1 130550Z 11007KT 23/17 A3004 RMK A01 T02330173  RH  069%=      5-min Rain = 0
KPD1 130551Z 09008KT 23/17 A3004 RMK A01 T02320173  RH  069%=      5-min Rain = 0
KPD1 130552Z 10009KT 23/17 A3004 RMK A01 T02320173  RH  069%=      5-min Rain = 0
KPD1 130553Z 09007KT 23/17 A3004 RMK A01 T02320173  RH  069%=      5-min Rain = 0
KPD1 130554Z 09005G10KT 23/17 A3004 RMK A01 T02320174  RH  070%=      5-min Rain = 0
KPD1 130555Z 10007KT 23/17 A3004 RMK A01 T02320174  RH  070%=      5-min Rain = 0
KPD1 130556Z 11008KT 23/17 A3004 RMK A01 T02320174  RH  070%=      5-min Rain = 0
KPD1 130557Z 10007KT 23/18 A3004 RMK A01 T02320175  RH  070%=      5-min Rain = 0
KPD1 130558Z 09007KT 23/18 A3004 RMK A01 T02320175  RH  070%=      5-min Rain = 0
KPD1 130559Z 10008KT 23/18 A3004 RMK A01 T02320175  RH  070%=      5-min Rain = 0
KPD1 130600Z 09012G17KT 23/18 A3004 RMK A01 T02320176  RH  070%=      5-min Rain = 0
KPD1 130601Z 09010G15KT 23/18 A3004 RMK A01 T02320176  RH  071%=      5-min Rain = 0
KPD1 130602Z 09010KT 23/18 A3004 RMK A01 T02320176  RH  071%=      5-min Rain = 0
KPD1 130603Z 10009G17KT 23/18 A3004 RMK A01 T02320176  RH  071%=      5-min Rain = 0
KPD1 130604Z 09008KT 23/18 A3004 RMK A01 T02320176  RH  071%=      5-min Rain = 0
KPD1 130605Z 10008G15KT 23/18 A3004 RMK A01 T02320176  RH  071%=      5-min Rain = 0
KPD1 130606Z 08009KT 23/18 A3004 RMK A01 T02320176  RH  071%=      5-min Rain = 0
KPD1 130607Z 10005KT 23/18 A3004 RMK A01 T02320176  RH  071%=      5-min Rain = 0
KPD1 130608Z 11006G13KT 23/18 A3004 RMK A01 T02330177  RH  071%=      5-min Rain = 0
KPD1 130609Z 10010KT 23/18 A3004 RMK A01 T02320177  RH  071%=      5-min Rain = 0
KPD1 130610Z 11008KT 23/18 A3004 RMK A01 T02320176  RH  071%=      5-min Rain = 0
KPD1 130611Z 11004KT 23/18 A3004 RMK A01 T02320176  RH  071%=      5-min Rain = 0
KPD1 130612Z 11007KT 23/18 A3004 RMK A01 T02320177  RH  071%=      5-min Rain = 0
KPD1 130613Z 11009KT 23/18 A3004 RMK A01 T02320177  RH  071%=      5-min Rain = 0
KPD1 130614Z 11011G17KT 23/18 A3004 RMK A01 T02310177  RH  071%=      5-min Rain = 0
KPD1 130615Z 10010G15KT 23/18 A3004 RMK A01 T02320177  RH  071%=      5-min Rain = 0
KPD1 130616Z 10006G11KT 23/18 A3004 RMK A01 T02310177  RH  072%=      5-min Rain = 0
KPD1 130617Z 12006KT 23/18 A3004 RMK A01 T02310178  RH  072%=      5-min Rain = 0
KPD1 130618Z 12005KT 23/18 A3004 RMK A01 T02310177  RH  072%=      5-min Rain = 0
KPD1 130619Z 13005KT 23/18 A3004 RMK A01 T02310178  RH  072%=      5-min Rain = 0
KPD1 130620Z 11005KT 23/18 A3004 RMK A01 T02300178  RH  072%=      5-min Rain = 0
KPD1 130621Z 12005KT 23/18 A3004 RMK A01 T02300177  RH  072%=      5-min Rain = 0
KPD1 130622Z 14004KT 23/18 A3004 RMK A01 T02300178  RH  072%=      5-min Rain = 0
KPD1 130623Z 16005KT 23/18 A3004 RMK A01 T02300177  RH  072%=      5-min Rain = 0
KPD1 130624Z 13007KT 23/18 A3004 RMK A01 T02300177  RH  072%=      5-min Rain = 0
KPD1 130625Z 12011G16KT 23/18 A3004 RMK A01 T02300178  RH  072%=      5-min Rain = 0
KPD1 130626Z 11009KT 23/18 A3004 RMK A01 T02290177  RH  072%=      5-min Rain = 0
KPD1 130627Z 11007KT 23/18 A3004 RMK A01 T02300178  RH  072%=      5-min Rain = 0
KPD1 130628Z 11007KT 23/18 A3004 RMK A01 T02290177  RH  072%=      5-min Rain = 0
KPD1 130629Z 12008KT 23/18 A3004 RMK A01 T02300177  RH  072%=      5-min Rain = 0
KPD1 130630Z 14008KT 23/18 A3004 RMK A01 T02300177  RH  072%=      5-min Rain = 0
KPD1 130631Z 14007KT 23/18 A3004 RMK A01 T02290177  RH  072%=      5-min Rain = 0
KPD1 130632Z 14007KT 23/18 A3004 RMK A01 T02300177  RH  072%=      5-min Rain = 0
KPD1 130633Z 14007KT 23/18 A3004 RMK A01 T02300177  RH  072%=      5-min Rain = 0
KPD1 130634Z 12006KT 23/18 A3004 RMK A01 T02290177  RH  072%=      5-min Rain = 0
KPD1 130635Z 12005KT 23/18 A3004 RMK A01 T02300178  RH  073%=      5-min Rain = 0
KPD1 130636Z 13005KT 23/18 A3004 RMK A01 T02290178  RH  073%=      5-min Rain = 0
KPD1 130637Z 12006KT 23/18 A3004 RMK A01 T02290177  RH  073%=      5-min Rain = 0
KPD1 130638Z 11007KT 23/18 A3004 RMK A01 T02290178  RH  073%=      5-min Rain = 0
KPD1 130639Z 14007KT 23/18 A3004 RMK A01 T02290177  RH  073%=      5-min Rain = 0
KPD1 130640Z 12008KT 23/18 A3004 RMK A01 T02290178  RH  073%=      5-min Rain = 0
KPD1 130641Z 12006KT 23/18 A3004 RMK A01 T02290178  RH  073%=      5-min Rain = 0
KPD1 130642Z 12005KT 23/18 A3004 RMK A01 T02280177  RH  073%=      5-min Rain = 0
KPD1 130643Z 11005KT 23/18 A3004 RMK A01 T02280178  RH  073%=      5-min Rain = 0
KPD1 130644Z 12005KT 23/18 A3004 RMK A01 T02280178  RH  073%=      5-min Rain = 0
KPD1 130645Z 11005KT 23/18 A3004 RMK A01 T02280178  RH  073%=      5-min Rain = 0
KPD1 130646Z 12006KT 23/18 A3004 RMK A01 T02270177  RH  073%=      5-min Rain = 0
KPD1 130647Z 12004KT 23/18 A3004 RMK A01 T02280178  RH  073%=      5-min Rain = 0
KPD1 130648Z 10004KT 23/18 A3004 RMK A01 T02270178  RH  074%=      5-min Rain = 0
KPD1 130649Z 12005G10KT 23/18 A3004 RMK A01 T02270177  RH  074%=      5-min Rain = 0
KPD1 130650Z 10006KT 23/18 A3004 RMK A01 T02270178  RH  074%=      5-min Rain = 0
KPD1 130651Z 10007KT 23/18 A3004 RMK A01 T02260178  RH  074%=      5-min Rain = 0
KPD1 130652Z 09007KT 23/18 A3004 RMK A01 T02260177  RH  074%=      5-min Rain = 0
KPD1 130653Z 08007KT 23/18 A3004 RMK A01 T02260177  RH  074%=      5-min Rain = 0
KPD1 130654Z 08007KT 23/18 A3004 RMK A01 T02270178  RH  074%=      5-min Rain = 0
KPD1 130655Z 08007KT 23/18 A3004 RMK A01 T02270178  RH  074%=      5-min Rain = 0
KPD1 130656Z 08007KT 23/18 A3004 RMK A01 T02270178  RH  074%=      5-min Rain = 0
KPD1 130657Z 10005KT 23/18 A3004 RMK A01 T02260178  RH  074%=      5-min Rain = 0
KPD1 130658Z 09007KT 23/18 A3004 RMK A01 T02260178  RH  074%=      5-min Rain = 0
KPD1 130659Z 08004KT 23/18 A3004 RMK A01 T02260178  RH  074%=      5-min Rain = 0
KPD1 130700Z 07005G10KT 23/18 A3004 RMK A01 T02260178  RH  074%=      5-min Rain = 0
KPD1 130701Z 08006KT 23/18 A3004 RMK A01 T02250178  RH  075%=      5-min Rain = 0
KPD1 130702Z 07004KT 23/18 A3004 RMK A01 T02250179  RH  075%=      5-min Rain = 0
KPD1 130703Z 06004KT 23/18 A3004 RMK A01 T02250179  RH  075%=      5-min Rain = 0
KPD1 130704Z 07007KT 23/18 A3004 RMK A01 T02250179  RH  075%=      5-min Rain = 0
KPD1 130705Z 09005KT 22/18 A3004 RMK A01 T02240179  RH  076%=      5-min Rain = 0
KPD1 130706Z 08005KT 22/18 A3004 RMK A01 T02240179  RH  076%=      5-min Rain = 0
KPD1 130707Z 09004KT 22/18 A3004 RMK A01 T02240179  RH  076%=      5-min Rain = 0
KPD1 130708Z 10008KT 22/18 A3004 RMK A01 T02240179  RH  076%=      5-min Rain = 0
KPD1 130709Z 09009KT 22/18 A3004 RMK A01 T02230179  RH  076%=      5-min Rain = 0
KPD1 130710Z 11008KT 22/18 A3004 RMK A01 T02230180  RH  076%=      5-min Rain = 0
KPD1 130711Z 10009KT 22/18 A3004 RMK A01 T02230180  RH  077%=      5-min Rain = 0
KPD1 130712Z 11014KT 22/18 A3004 RMK A01 T02220180  RH  077%=      5-min Rain = 0
KPD1 130713Z 10008G14KT 22/18 A3004 RMK A01 T02230180  RH  077%=      5-min Rain = 0
KPD1 130714Z 08013KT 22/18 A3004 RMK A01 T02230181  RH  077%=      5-min Rain = 0
KPD1 130715Z 07008KT 22/18 A3004 RMK A01 T02220180  RH  077%=      5-min Rain = 0
KPD1 130716Z 10006KT 22/18 A3004 RMK A01 T02220181  RH  077%=      5-min Rain = 0
KPD1 130717Z 10007KT 22/18 A3004 RMK A01 T02220181  RH  078%=      5-min Rain = 0
KPD1 130718Z 09009G14KT 22/18 A3004 RMK A01 T02210181  RH  078%=      5-min Rain = 0
KPD1 130719Z 10009KT 22/18 A3004 RMK A01 T02210181  RH  078%=      5-min Rain = 0
KPD1 130720Z 09008KT 22/18 A3004 RMK A01 T02200182  RH  079%=      5-min Rain = 0
KPD1 130721Z 10012KT 22/18 A3004 RMK A01 T02200182  RH  079%=      5-min Rain = 0
KPD1 130722Z 09008KT 22/18 A3004 RMK A01 T02200182  RH  079%=      5-min Rain = 0
KPD1 130723Z 09006KT 22/18 A3004 RMK A01 T02200182  RH  079%=      5-min Rain = 0
KPD1 130724Z 10005KT 22/18 A3004 RMK A01 T02190182  RH  079%=      5-min Rain = 0
KPD1 130725Z 09009KT 22/18 A3004 RMK A01 T02190182  RH  080%=      5-min Rain = 0
KPD1 130726Z 09008KT 22/18 A3004 RMK A01 T02190182  RH  080%=      5-min Rain = 0
KPD1 130727Z 08008G13KT 22/18 A3004 RMK A01 T02180182  RH  080%=      5-min Rain = 0
KPD1 130728Z 09008KT 22/18 A3004 RMK A01 T02180182  RH  080%=      5-min Rain = 0
KPD1 130729Z 10008KT 22/18 A3004 RMK A01 T02180182  RH  080%=      5-min Rain = 0
KPD1 130730Z 09006KT 22/18 A3004 RMK A01 T02180183  RH  080%=      5-min Rain = 0
KPD1 130731Z 10007KT 22/18 A3004 RMK A01 T02180182  RH  080%=      5-min Rain = 0
KPD1 130732Z 10005KT 22/18 A3004 RMK A01 T02180183  RH  080%=      5-min Rain = 0
KPD1 130733Z 09006KT 22/18 A3004 RMK A01 T02170182  RH  080%=      5-min Rain = 0
KPD1 130734Z 09006KT 22/18 A3004 RMK A01 T02170183  RH  081%=      5-min Rain = 0
KPD1 130735Z 09008KT 22/18 A3004 RMK A01 T02170183  RH  081%=      5-min Rain = 0
KPD1 130736Z 08008KT 22/18 A3004 RMK A01 T02170182  RH  081%=      5-min Rain = 0
KPD1 130737Z 08011KT 22/18 A3004 RMK A01 T02170182  RH  081%=      5-min Rain = 0
KPD1 130738Z 07010KT 22/18 A3004 RMK A01 T02170182  RH  081%=      5-min Rain = 0
KPD1 130739Z 08009KT 22/18 A3004 RMK A01 T02170182  RH  081%=      5-min Rain = 0
KPD1 130740Z 07008KT 22/18 A3004 RMK A01 T02170182  RH  081%=      5-min Rain = 0
KPD1 130741Z 07005KT 22/18 A3004 RMK A01 T02170183  RH  081%=      5-min Rain = 0
KPD1 130742Z 08006KT 22/18 A3004 RMK A01 T02160183  RH  081%=      5-min Rain = 0
KPD1 130743Z 09008KT 22/18 A3004 RMK A01 T02160184  RH  082%=      5-min Rain = 0
KPD1 130744Z 09008KT 22/18 A3004 RMK A01 T02150183  RH  082%=      5-min Rain = 0
KPD1 130745Z 09006KT 22/18 A3004 RMK A01 T02150183  RH  082%=      5-min Rain = 0
KPD1 130746Z 09005KT 22/18 A3004 RMK A01 T02150183  RH  082%=      5-min Rain = 0
KPD1 130747Z 09007KT 22/18 A3004 RMK A01 T02150184  RH  082%=      5-min Rain = 0
KPD1 130748Z 10009KT 22/18 A3005 RMK A01 T02150183  RH  082%=      5-min Rain = 0
KPD1 130749Z 09008G13KT 21/18 A3005 RMK A01 T02140183  RH  082%=      5-min Rain = 0
KPD1 130750Z 08008KT 22/18 A3005 RMK A01 T02150183  RH  082%=      5-min Rain = 0
KPD1 130751Z 08007KT 22/18 A3005 RMK A01 T02150184  RH  083%=      5-min Rain = 0
KPD1 130752Z 09008KT 21/18 A3005 RMK A01 T02140184  RH  083%=      5-min Rain = 0
KPD1 130753Z 08009KT 22/18 A3005 RMK A01 T02150184  RH  083%=      5-min Rain = 0
KPD1 130754Z 08006KT 21/18 A3005 RMK A01 T02140184  RH  083%=      5-min Rain = 0
KPD1 130755Z 09007KT 21/18 A3005 RMK A01 T02140184  RH  083%=      5-min Rain = 0
KPD1 130756Z 08011KT 21/18 A3005 RMK A01 T02140184  RH  083%=      5-min Rain = 0
KPD1 130757Z 08011KT 21/18 A3005 RMK A01 T02140184  RH  083%=      5-min Rain = 0
KPD1 130758Z 08010KT 21/18 A3005 RMK A01 T02130184  RH  083%=      5-min Rain = 0
KPD1 130759Z 09009KT 21/18 A3005 RMK A01 T02130184  RH  083%=      5-min Rain = 0
KPD1 130800Z 08010KT 21/19 A3005 RMK A01 T02140185  RH  083%=      5-min Rain = 0
KPD1 130801Z 09008KT 21/18 A3005 RMK A01 T02130184  RH  083%=      5-min Rain = 0
KPD1 130802Z 08006KT 21/19 A3004 RMK A01 T02140185  RH  084%=      5-min Rain = 0
KPD1 130803Z 07005KT 21/18 A3004 RMK A01 T02130184  RH  084%=      5-min Rain = 0
KPD1 130804Z 08006KT 21/18 A3004 RMK A01 T02120184  RH  084%=      5-min Rain = 0
KPD1 130805Z 10005KT 21/19 A3004 RMK A01 T02130185  RH  084%=      5-min Rain = 0
KPD1 130806Z 08007KT 21/19 A3005 RMK A01 T02120185  RH  084%=      5-min Rain = 0
KPD1 130807Z 09006KT 21/19 A3005 RMK A01 T02120185  RH  084%=      5-min Rain = 0
KPD1 130808Z 09009G14KT 21/19 A3005 RMK A01 T02120185  RH  085%=      5-min Rain = 0
KPD1 130809Z 09009KT 21/19 A3005 RMK A01 T02120185  RH  085%=      5-min Rain = 0
KPD1 130810Z 09007KT 21/19 A3005 RMK A01 T02120185  RH  085%=      5-min Rain = 0
KPD1 130811Z 10008KT 21/19 A3005 RMK A01 T02130186  RH  085%=      5-min Rain = 0
KPD1 130812Z 09006KT 21/19 A3005 RMK A01 T02120185  RH  085%=      5-min Rain = 0
KPD1 130813Z 09006KT 21/19 A3005 RMK A01 T02120186  RH  085%=      5-min Rain = 0
KPD1 130814Z 10009KT 21/19 A3005 RMK A01 T02120185  RH  085%=      5-min Rain = 0
KPD1 130815Z 08008KT 21/19 A3005 RMK A01 T02120185  RH  085%=      5-min Rain = 0
KPD1 130816Z 09006KT 21/19 A3004 RMK A01 T02120185  RH  085%=      5-min Rain = 0
KPD1 130817Z 10007KT 21/19 A3004 RMK A01 T02120185  RH  085%=      5-min Rain = 0
KPD1 130818Z 11009KT 21/19 A3004 RMK A01 T02120185  RH  085%=      5-min Rain = 0
KPD1 130819Z 10008KT 21/19 A3004 RMK A01 T02120186  RH  085%=      5-min Rain = 0
KPD1 130820Z 11006KT 21/19 A3004 RMK A01 T02120185  RH  085%=      5-min Rain = 0
KPD1 130821Z 09006KT 21/19 A3004 RMK A01 T02120186  RH  085%=      5-min Rain = 0
KPD1 130822Z 10008KT 21/19 A3004 RMK A01 T02120186  RH  085%=      5-min Rain = 0
KPD1 130823Z 10007KT 21/19 A3004 RMK A01 T02110185  RH  085%=      5-min Rain = 0
KPD1 130824Z 10009KT 21/19 A3004 RMK A01 T02110186  RH  085%=      5-min Rain = 0
KPD1 130825Z 09007KT 21/19 A3004 RMK A01 T02120186  RH  085%=      5-min Rain = 0
KPD1 130826Z 10007KT 21/19 A3004 RMK A01 T02110186  RH  085%=      5-min Rain = 0
KPD1 130827Z 10008KT 21/19 A3004 RMK A01 T02110186  RH  085%=      5-min Rain = 0
KPD1 130828Z 11006KT 21/19 A3004 RMK A01 T02110185  RH  085%=      5-min Rain = 0
KPD1 130829Z 10007KT 21/19 A3004 RMK A01 T02110185  RH  085%=      5-min Rain = 0
KPD1 130830Z 10006KT 21/19 A3004 RMK A01 T02110186  RH  085%=      5-min Rain = 0
KPD1 130831Z 10007KT 21/19 A3004 RMK A01 T02110185  RH  085%=      5-min Rain = 0
KPD1 130832Z 10007KT 21/19 A3004 RMK A01 T02110186  RH  085%=      5-min Rain = 0
KPD1 130833Z 10008KT 21/19 A3004 RMK A01 T02110186  RH  085%=      5-min Rain = 0
KPD1 130834Z 11006KT 21/19 A3004 RMK A01 T02110186  RH  085%=      5-min Rain = 0
KPD1 130835Z 11009KT 21/19 A3004 RMK A01 T02110186  RH  085%=      5-min Rain = 0
KPD1 130836Z 12007KT 21/19 A3004 RMK A01 T02110186  RH  086%=      5-min Rain = 0
KPD1 130837Z 11006KT 21/19 A3004 RMK A01 T02110186  RH  085%=      5-min Rain = 0
KPD1 130838Z 10006KT 21/19 A3004 RMK A01 T02120186  RH  086%=      5-min Rain = 0
KPD1 130839Z 11005KT 21/19 A3004 RMK A01 T02110186  RH  086%=      5-min Rain = 0
KPD1 130840Z 11006KT 21/19 A3004 RMK A01 T02110186  RH  086%=      5-min Rain = 0
KPD1 130841Z 10007KT 21/19 A3004 RMK A01 T02100186  RH  086%=      5-min Rain = 0
KPD1 130842Z 12007KT 21/19 A3004 RMK A01 T02100186  RH  086%=      5-min Rain = 0
KPD1 130843Z 11005KT 21/19 A3005 RMK A01 T02110186  RH  086%=      5-min Rain = 0
KPD1 130844Z 11004KT 21/19 A3005 RMK A01 T02100186  RH  086%=      5-min Rain = 0
KPD1 130845Z 11006KT 21/19 A3005 RMK A01 T02100186  RH  086%=      5-min Rain = 0
KPD1 130846Z 12006KT 21/19 A3005 RMK A01 T02100186  RH  086%=      5-min Rain = 0
KPD1 130847Z 11005KT 21/19 A3005 RMK A01 T02100186  RH  086%=      5-min Rain = 0
KPD1 130848Z 12006G11KT 21/19 A3005 RMK A01 T02100186  RH  086%=      5-min Rain = 0
KPD1 130849Z 11008KT 21/19 A3005 RMK A01 T02100186  RH  086%=      5-min Rain = 0
KPD1 130850Z 12006KT 21/19 A3005 RMK A01 T02100186  RH  086%=      5-min Rain = 0
KPD1 130851Z 10008KT 21/19 A3005 RMK A01 T02100186  RH  086%=      5-min Rain = 0
KPD1 130852Z 12008KT 21/19 A3005 RMK A01 T02100186  RH  086%=      5-min Rain = 0
KPD1 130853Z 10005KT 21/19 A3005 RMK A01 T02100186  RH  086%=      5-min Rain = 0
KPD1 130854Z 12005KT 21/19 A3005 RMK A01 T02100186  RH  086%=      5-min Rain = 0
KPD1 130855Z 10003KT 21/19 A3005 RMK A01 T02100186  RH  086%=      5-min Rain = 0
KPD1 130856Z 10003KT 21/19 A3005 RMK A01 T02100186  RH  086%=      5-min Rain = 0
KPD1 130857Z 09004KT 21/19 A3005 RMK A01 T02100186  RH  086%=      5-min Rain = 0
KPD1 130858Z 10003KT 21/19 A3005 RMK A01 T02090186  RH  086%=      5-min Rain = 0
KPD1 130859Z 11002KT 21/19 A3005 RMK A01 T02090186  RH  087%=      5-min Rain = 0
KPD1 130900Z 12002KT 21/19 A3005 RMK A01 T02090186  RH  087%=      5-min Rain = 0
KPD1 130901Z 12003KT 21/19 A3005 RMK A01 T02090186  RH  087%=      5-min Rain = 0
KPD1 130902Z 10005KT 21/19 A3005 RMK A01 T02080186  RH  087%=      5-min Rain = 0
KPD1 130903Z 12004KT 21/19 A3005 RMK A01 T02090186  RH  087%=      5-min Rain = 0
KPD1 130904Z 10005KT 21/19 A3005 RMK A01 T02080186  RH  087%=      5-min Rain = 0
KPD1 130905Z 09006KT 21/19 A3005 RMK A01 T02090186  RH  087%=      5-min Rain = 0
KPD1 130906Z 09005KT 21/19 A3005 RMK A01 T02090186  RH  087%=      5-min Rain = 0
KPD1 130907Z 09005KT 21/19 A3005 RMK A01 T02090186  RH  087%=      5-min Rain = 0
KPD1 130908Z 08005KT 21/19 A3005 RMK A01 T02090186  RH  087%=      5-min Rain = 0
KPD1 130909Z 09004KT 21/19 A3005 RMK A01 T02090186  RH  087%=      5-min Rain = 0
KPD1 130910Z 09004KT 21/19 A3005 RMK A01 T02090186  RH  087%=      5-min Rain = 0
KPD1 130911Z 09004KT 21/19 A3005 RMK A01 T02090186  RH  087%=      5-min Rain = 0
KPD1 130912Z 09003KT 21/19 A3005 RMK A01 T02090186  RH  087%=      5-min Rain = 0
KPD1 130913Z 10003KT 21/19 A3005 RMK A01 T02080186  RH  087%=      5-min Rain = 0
KPD1 130914Z 08001KT 21/19 A3006 RMK A01 T02080186  RH  087%=      5-min Rain = 0
KPD1 130915Z 10003KT 21/19 A3006 RMK A01 T02080186  RH  087%=      5-min Rain = 0
KPD1 130916Z 10003KT 21/19 A3006 RMK A01 T02080186  RH  087%=      5-min Rain = 0
KPD1 130917Z 10002KT 21/19 A3006 RMK A01 T02080186  RH  087%=      5-min Rain = 0
KPD1 130918Z 11003KT 21/19 A3006 RMK A01 T02070185  RH  087%=      5-min Rain = 0
KPD1 130919Z 10002KT 21/19 A3006 RMK A01 T02070185  RH  088%=      5-min Rain = 0
KPD1 130920Z 12001KT 21/19 A3006 RMK A01 T02070185  RH  088%=      5-min Rain = 0
KPD1 130921Z 11003KT 21/19 A3006 RMK A01 T02060185  RH  088%=      5-min Rain = 0
KPD1 130922Z 12003KT 21/19 A3006 RMK A01 T02060185  RH  088%=      5-min Rain = 0
KPD1 130923Z 10003KT 21/19 A3006 RMK A01 T02060185  RH  088%=      5-min Rain = 0
KPD1 130924Z 11002KT 21/19 A3006 RMK A01 T02060185  RH  088%=      5-min Rain = 0
KPD1 130925Z 09003KT 21/19 A3006 RMK A01 T02060185  RH  088%=      5-min Rain = 0
KPD1 130926Z 10004KT 21/19 A3006 RMK A01 T02060185  RH  088%=      5-min Rain = 0
KPD1 130927Z 11004KT 21/19 A3006 RMK A01 T02060185  RH  088%=      5-min Rain = 0
KPD1 130928Z 12004KT 21/19 A3006 RMK A01 T02060185  RH  087%=      5-min Rain = 0
KPD1 130929Z 11003KT 21/19 A3006 RMK A01 T02070185  RH  087%=      5-min Rain = 0
KPD1 130930Z 11005KT 21/19 A3006 RMK A01 T02070185  RH  087%=      5-min Rain = 0
KPD1 130931Z 11005KT 21/19 A3006 RMK A01 T02070185  RH  087%=      5-min Rain = 0
KPD1 130932Z 10004KT 21/19 A3006 RMK A01 T02070185  RH  087%=      5-min Rain = 0
KPD1 130933Z 10001KT 21/19 A3006 RMK A01 T02070185  RH  087%=      5-min Rain = 0
KPD1 130934Z 08001KT 21/19 A3006 RMK A01 T02070185  RH  087%=      5-min Rain = 0
KPD1 130935Z 09001KT 21/19 A3006 RMK A01 T02080186  RH  087%=      5-min Rain = 0
KPD1 130936Z 00000KT 21/19 A3006 RMK A01 T02080185  RH  087%=      5-min Rain = 0
KPD1 130937Z 00000KT 21/19 A3006 RMK A01 T02080186  RH  087%=      5-min Rain = 0
KPD1 130938Z 00000KT 21/19 A3006 RMK A01 T02080185  RH  087%=      5-min Rain = 0
KPD1 130939Z 00000KT 21/19 A3006 RMK A01 T02080185  RH  087%=      5-min Rain = 0
KPD1 130940Z 09000KT 21/19 A3006 RMK A01 T02070185  RH  087%=      5-min Rain = 0
KPD1 130941Z 10001KT 21/19 A3006 RMK A01 T02070185  RH  087%=      5-min Rain = 0
KPD1 130942Z 07001KT 21/19 A3006 RMK A01 T02080185  RH  087%=      5-min Rain = 0
KPD1 130943Z 08000KT 21/19 A3006 RMK A01 T02080185  RH  087%=      5-min Rain = 0
KPD1 130944Z 00000KT 21/19 A3006 RMK A01 T02070185  RH  087%=      5-min Rain = 0
KPD1 130945Z 00000KT 21/19 A3006 RMK A01 T02080185  RH  087%=      5-min Rain = 0
KPD1 130946Z 00000KT 21/19 A3006 RMK A01 T02070185  RH  087%=      5-min Rain = 0
KPD1 130947Z 13001KT 21/19 A3006 RMK A01 T02060185  RH  087%=      5-min Rain = 0
KPD1 130948Z 13001KT 21/19 A3006 RMK A01 T02060185  RH  088%=      5-min Rain = 0
KPD1 130949Z 14000KT 21/18 A3006 RMK A01 T02060184  RH  087%=      5-min Rain = 0
KPD1 130950Z 14001KT 21/18 A3006 RMK A01 T02050184  RH  088%=      5-min Rain = 0
KPD1 130951Z 14002KT 21/18 A3006 RMK A01 T02050184  RH  088%=      5-min Rain = 0
KPD1 130952Z 13001KT 20/18 A3006 RMK A01 T02040183  RH  088%=      5-min Rain = 0
KPD1 130953Z 15001KT 20/18 A3006 RMK A01 T02040184  RH  088%=      5-min Rain = 0
KPD1 130954Z 14002KT 20/18 A3006 RMK A01 T02040184  RH  089%=      5-min Rain = 0
KPD1 130955Z 15003KT 20/19 A3006 RMK A01 T02040185  RH  088%=      5-min Rain = 0
KPD1 130956Z 15003KT 20/18 A3006 RMK A01 T02040184  RH  088%=      5-min Rain = 0
KPD1 130957Z 13003KT 20/18 A3006 RMK A01 T02040184  RH  088%=      5-min Rain = 0
KPD1 130958Z 13003KT 20/18 A3006 RMK A01 T02040184  RH  088%=      5-min Rain = 0
KPD1 130959Z 15003KT 20/18 A3006 RMK A01 T02040184  RH  088%=      5-min Rain = 0
KPD1 131000Z 12003KT 20/18 A3006 RMK A01 T02040184  RH  089%=      5-min Rain = 0
KPD1 131001Z 12003KT 20/19 A3006 RMK A01 T02040185  RH  089%=      5-min Rain = 0
KPD1 131002Z 13003KT 20/19 A3006 RMK A01 T02040185  RH  089%=      5-min Rain = 0
KPD1 131003Z 13003KT 20/19 A3006 RMK A01 T02040185  RH  089%=      5-min Rain = 0
KPD1 131004Z 14002KT 20/19 A3006 RMK A01 T02030185  RH  089%=      5-min Rain = 0
KPD1 131005Z 12002KT 20/18 A3006 RMK A01 T02030184  RH  089%=      5-min Rain = 0
KPD1 131006Z 12002KT 20/19 A3006 RMK A01 T02030185  RH  089%=      5-min Rain = 0
KPD1 131007Z 12001KT 20/19 A3006 RMK A01 T02030185  RH  089%=      5-min Rain = 0
KPD1 131008Z 13001KT 20/19 A3006 RMK A01 T02030185  RH  089%=      5-min Rain = 0
KPD1 131009Z 13000KT 20/18 A3006 RMK A01 T02020184  RH  089%=      5-min Rain = 0
KPD1 131010Z 00000KT 20/18 A3006 RMK A01 T02020184  RH  089%=      5-min Rain = 0
KPD1 131011Z 00000KT 20/18 A3006 RMK A01 T02010184  RH  090%=      5-min Rain = 0
KPD1 131012Z 00000KT 20/19 A3006 RMK A01 T02020185  RH  090%=      5-min Rain = 0
KPD1 131013Z 00000KT 20/19 A3006 RMK A01 T02020185  RH  090%=      5-min Rain = 0
KPD1 131014Z 00000KT 20/19 A3006 RMK A01 T02020185  RH  090%=      5-min Rain = 0
KPD1 131015Z 00000KT 20/18 A3006 RMK A01 T02010184  RH  090%=      5-min Rain = 0
KPD1 131016Z 00000KT 20/18 A3006 RMK A01 T02000183  RH  090%=      5-min Rain = 0
KPD1 131017Z 00000KT 20/18 A3006 RMK A01 T02000183  RH  090%=      5-min Rain = 0
KPD1 131018Z 00000KT 20/18 A3006 RMK A01 T02000183  RH  090%=      5-min Rain = 0
KPD1 131019Z 00000KT 20/18 A3006 RMK A01 T01990183  RH  090%=      5-min Rain = 0
KPD1 131020Z 00000KT 20/18 A3006 RMK A01 T01990183  RH  090%=      5-min Rain = 0
KPD1 131021Z 00000KT 20/18 A3007 RMK A01 T01980183  RH  091%=      5-min Rain = 0
KPD1 131022Z 00000KT 20/18 A3006 RMK A01 T01980183  RH  091%=      5-min Rain = 0
KPD1 131023Z 30000KT 20/18 A3006 RMK A01 T01980183  RH  091%=      5-min Rain = 0
KPD1 131024Z 29002KT 20/18 A3006 RMK A01 T01970183  RH  091%=      5-min Rain = 0
KPD1 131025Z 28001KT 20/18 A3007 RMK A01 T01970183  RH  091%=      5-min Rain = 0
KPD1 131026Z 27001KT 20/18 A3007 RMK A01 T01970183  RH  092%=      5-min Rain = 0
KPD1 131027Z 26001KT 20/18 A3007 RMK A01 T01970183  RH  092%=      5-min Rain = 0
KPD1 131028Z 26001KT 20/18 A3007 RMK A01 T01960183  RH  092%=      5-min Rain = 0
KPD1 131029Z 25001KT 20/18 A3007 RMK A01 T01960183  RH  092%=      5-min Rain = 0
KPD1 131030Z 23001KT 20/18 A3007 RMK A01 T01960183  RH  092%=      5-min Rain = 0
KPD1 131031Z 21000KT 20/18 A3007 RMK A01 T01970184  RH  092%=      5-min Rain = 0
KPD1 131032Z 26001KT 20/18 A3007 RMK A01 T01970184  RH  092%=      5-min Rain = 0
KPD1 131033Z 27002KT 20/18 A3007 RMK A01 T01980184  RH  092%=      5-min Rain = 0
KPD1 131034Z 26002KT 20/18 A3007 RMK A01 T01980184  RH  092%=      5-min Rain = 0
KPD1 131035Z 26002KT 20/18 A3007 RMK A01 T01980183  RH  091%=      5-min Rain = 0
KPD1 131036Z 25001KT 20/18 A3007 RMK A01 T01980183  RH  092%=      5-min Rain = 0
KPD1 131037Z 21001KT 20/18 A3007 RMK A01 T01970183  RH  092%=      5-min Rain = 0
KPD1 131038Z 23001KT 20/18 A3007 RMK A01 T01970183  RH  092%=      5-min Rain = 0
KPD1 131039Z 28001KT 20/18 A3007 RMK A01 T01970183  RH  092%=      5-min Rain = 0
KPD1 131040Z 28002KT 20/18 A3007 RMK A01 T01970184  RH  092%=      5-min Rain = 0
KPD1 131041Z 29002KT 20/18 A3007 RMK A01 T01970184  RH  092%=      5-min Rain = 0
KPD1 131042Z 29003KT 20/18 A3007 RMK A01 T01970184  RH  092%=      5-min Rain = 0
KPD1 131043Z 30004KT 20/18 A3007 RMK A01 T01970184  RH  092%=      5-min Rain = 0
KPD1 131044Z 30004KT 20/18 A3007 RMK A01 T01970183  RH  092%=      5-min Rain = 0
KPD1 131045Z 30003KT 20/18 A3007 RMK A01 T01970183  RH  092%=      5-min Rain = 0
KPD1 131046Z 30003KT 20/18 A3007 RMK A01 T01970183  RH  092%=      5-min Rain = 0
KPD1 131047Z 31003KT 20/18 A3007 RMK A01 T01980184  RH  092%=      5-min Rain = 0
KPD1 131048Z 30004KT 20/18 A3007 RMK A01 T01970183  RH  092%=      5-min Rain = 0
KPD1 131049Z 30004KT 20/18 A3007 RMK A01 T01970183  RH  092%=      5-min Rain = 0
KPD1 131050Z 30003KT 20/18 A3007 RMK A01 T01970183  RH  092%=      5-min Rain = 0
KPD1 131051Z 29003KT 20/18 A3007 RMK A01 T01960183  RH  092%=      5-min Rain = 0
KPD1 131052Z 29003KT 20/18 A3007 RMK A01 T01970183  RH  092%=      5-min Rain = 0
KPD1 131053Z 29003KT 20/18 A3007 RMK A01 T01970183  RH  092%=      5-min Rain = 0
KPD1 131054Z 29003KT 20/18 A3007 RMK A01 T01960183  RH  092%=      5-min Rain = 0
KPD1 131055Z 28003KT 20/18 A3007 RMK A01 T01970183  RH  092%=      5-min Rain = 0
KPD1 131056Z 28003KT 20/18 A3007 RMK A01 T01960183  RH  092%=      5-min Rain = 0
KPD1 131057Z 28002KT 20/18 A3007 RMK A01 T01960182  RH  092%=      5-min Rain = 0
KPD1 131058Z 28002KT 20/18 A3007 RMK A01 T01960183  RH  092%=      5-min Rain = 0
KPD1 131059Z 29000KT 20/18 A3007 RMK A01 T01960183  RH  092%=      5-min Rain = 0
KPD1 131100Z 26000KT 20/18 A3007 RMK A01 T01960182  RH  092%=      5-min Rain = 0
KPD1 131101Z 29003KT 20/18 A3007 RMK A01 T01960182  RH  092%=      5-min Rain = 0
KPD1 131102Z 29004KT 20/18 A3007 RMK A01 T01950181  RH  092%=      5-min Rain = 0
KPD1 131103Z 28003KT 20/18 A3007 RMK A01 T01950181  RH  092%=      5-min Rain = 0
KPD1 131104Z 28003KT 20/18 A3007 RMK A01 T01950182  RH  092%=      5-min Rain = 0
KPD1 131105Z 28003KT 20/18 A3007 RMK A01 T01950182  RH  092%=      5-min Rain = 0
KPD1 131106Z 27003KT 20/18 A3007 RMK A01 T01950182  RH  092%=      5-min Rain = 0
KPD1 131107Z 27004KT 20/18 A3007 RMK A01 T01950182  RH  092%=      5-min Rain = 0
KPD1 131108Z 27003KT 20/18 A3007 RMK A01 T01950182  RH  092%=      5-min Rain = 0
KPD1 131109Z 27003KT 19/18 A3007 RMK A01 T01940182  RH  092%=      5-min Rain = 0
KPD1 131110Z 28002KT 19/18 A3007 RMK A01 T01940182  RH  093%=      5-min Rain = 0
KPD1 131111Z 28003KT 19/18 A3007 RMK A01 T01940182  RH  093%=      5-min Rain = 0
KPD1 131112Z 28003KT 19/18 A3007 RMK A01 T01940182  RH  093%=      5-min Rain = 0
KPD1 131113Z 29002KT 19/18 A3008 RMK A01 T01940182  RH  093%=      5-min Rain = 0
KPD1 131114Z 30003KT 19/18 A3008 RMK A01 T01940182  RH  093%=      5-min Rain = 0
KPD1 131115Z 29003KT 19/18 A3008 RMK A01 T01940182  RH  093%=      5-min Rain = 0
KPD1 131116Z 29003KT 19/18 A3008 RMK A01 T01930182  RH  093%=      5-min Rain = 0
KPD1 131117Z 29004KT 19/18 A3008 RMK A01 T01940182  RH  093%=      5-min Rain = 0
KPD1 131118Z 29004KT 19/18 A3008 RMK A01 T01930182  RH  093%=      5-min Rain = 0
KPD1 131119Z 29004KT 19/18 A3008 RMK A01 T01930182  RH  093%=      5-min Rain = 0
KPD1 131120Z 29004KT 19/18 A3008 RMK A01 T01940182  RH  093%=      5-min Rain = 0
KPD1 131121Z 29005KT 19/18 A3008 RMK A01 T01930182  RH  093%=      5-min Rain = 0
KPD1 131122Z 29005KT 19/18 A3008 RMK A01 T01930182  RH  093%=      5-min Rain = 0
KPD1 131123Z 28004KT 19/18 A3008 RMK A01 T01940182  RH  093%=      5-min Rain = 0
KPD1 131124Z 28003KT 19/18 A3008 RMK A01 T01940182  RH  093%=      5-min Rain = 0
KPD1 131125Z 28004KT 19/18 A3008 RMK A01 T01930182  RH  093%=      5-min Rain = 0
KPD1 131126Z 28004KT 19/18 A3008 RMK A01 T01930182  RH  093%=      5-min Rain = 0
KPD1 131127Z 28004KT 19/18 A3008 RMK A01 T01930182  RH  093%=      5-min Rain = 0
KPD1 131128Z 28005KT 19/18 A3008 RMK A01 T01930182  RH  093%=      5-min Rain = 0
KPD1 131129Z 28004KT 19/18 A3008 RMK A01 T01930182  RH  093%=      5-min Rain = 0
KPD1 131130Z 28004KT 19/18 A3008 RMK A01 T01930182  RH  093%=      5-min Rain = 0
KPD1 131131Z 29003KT 19/18 A3008 RMK A01 T01930182  RH  093%=      5-min Rain = 0
KPD1 131132Z 29004KT 19/18 A3008 RMK A01 T01930182  RH  093%=      5-min Rain = 0
KPD1 131133Z 29004KT 19/18 A3008 RMK A01 T01930182  RH  093%=      5-min Rain = 0
KPD1 131134Z 30004KT 19/18 A3008 RMK A01 T01930182  RH  093%=      5-min Rain = 0
KPD1 131135Z 31004KT 19/18 A3008 RMK A01 T01940183  RH  093%=      5-min Rain = 0
KPD1 131136Z 31004KT 19/18 A3008 RMK A01 T01940183  RH  093%=      5-min Rain = 0
KPD1 131137Z 31004KT 19/18 A3008 RMK A01 T01930182  RH  093%=      5-min Rain = 0
KPD1 131138Z 31005KT 19/18 A3008 RMK A01 T01940183  RH  093%=      5-min Rain = 0
KPD1 131139Z 31004KT 19/18 A3008 RMK A01 T01930182  RH  093%=      5-min Rain = 0
KPD1 131140Z 31004KT 19/18 A3008 RMK A01 T01930182  RH  093%=      5-min Rain = 0
KPD1 131141Z 31004KT 19/18 A3008 RMK A01 T01930182  RH  093%=      5-min Rain = 0
KPD1 131142Z 31004KT 19/18 A3008 RMK A01 T01920181  RH  093%=      5-min Rain = 0
KPD1 131143Z 32004KT 19/18 A3008 RMK A01 T01930182  RH  093%=      5-min Rain = 0
KPD1 131144Z 31005KT 19/18 A3008 RMK A01 T01920181  RH  093%=      5-min Rain = 0
KPD1 131145Z 31004KT 19/18 A3008 RMK A01 T01920182  RH  094%=      5-min Rain = 0
KPD1 131146Z 32004KT 19/18 A3008 RMK A01 T01920181  RH  094%=      5-min Rain = 0
KPD1 131147Z 33004KT 19/18 A3008 RMK A01 T01910181  RH  094%=      5-min Rain = 0
KPD1 131148Z 34003KT 19/18 A3008 RMK A01 T01910181  RH  094%=      5-min Rain = 0
KPD1 131149Z 34003KT 19/18 A3008 RMK A01 T01910181  RH  094%=      5-min Rain = 0
KPD1 131150Z 33002KT 19/18 A3009 RMK A01 T01910181  RH  094%=      5-min Rain = 0
KPD1 131151Z 34002KT 19/18 A3009 RMK A01 T01910182  RH  094%=      5-min Rain = 0
KPD1 131152Z 35002KT 19/18 A3009 RMK A01 T01910182  RH  094%=      5-min Rain = 0
KPD1 131153Z 34003KT 19/18 A3009 RMK A01 T01910182  RH  094%=      5-min Rain = 0
KPD1 131154Z 35003KT 19/18 A3009 RMK A01 T01910181  RH  094%=      5-min Rain = 0
KPD1 131155Z 34003KT 19/18 A3009 RMK A01 T01910181  RH  094%=      5-min Rain = 0
KPD1 131156Z 33003KT 19/18 A3009 RMK A01 T01910182  RH  094%=      5-min Rain = 0
KPD1 131157Z 33003KT 19/18 A3009 RMK A01 T01910181  RH  094%=      5-min Rain = 0
KPD1 131158Z 33003KT 19/18 A3009 RMK A01 T01910182  RH  094%=      5-min Rain = 0
KPD1 131159Z 32003KT 19/18 A3009 RMK A01 T01910182  RH  095%=      5-min Rain = 0
KPD1 131200Z 33004KT 19/18 A3009 RMK A01 T01910182  RH  095%=      5-min Rain = 0
KPD1 131201Z 34004KT 19/18 A3009 RMK A01 T01910182  RH  095%=      5-min Rain = 0
KPD1 131202Z 33004KT 19/18 A3009 RMK A01 T01900182  RH  095%=      5-min Rain = 0
KPD1 131203Z 33004KT 19/18 A3009 RMK A01 T01900182  RH  095%=      5-min Rain = 0
KPD1 131204Z 33004KT 19/18 A3009 RMK A01 T01900182  RH  095%=      5-min Rain = 0
KPD1 131205Z 33004KT 19/18 A3009 RMK A01 T01900182  RH  095%=      5-min Rain = 0
KPD1 131206Z 33004KT 19/18 A3009 RMK A01 T01910183  RH  095%=      5-min Rain = 0
KPD1 131207Z 33004KT 19/18 A3009 RMK A01 T01910183  RH  095%=      5-min Rain = 0
KPD1 131208Z 33004KT 19/18 A3009 RMK A01 T01910183  RH  095%=      5-min Rain = 0
KPD1 131209Z 33004KT 19/18 A3009 RMK A01 T01910183  RH  095%=      5-min Rain = 0
KPD1 131210Z 34004KT 19/18 A3009 RMK A01 T01910184  RH  095%=      5-min Rain = 0
KPD1 131211Z 34004KT 19/18 A301 RMK A01 T01910184  RH  095%=      5-min Rain = 0
KPD1 131212Z 33004KT 19/18 A301 RMK A01 T01910183  RH  095%=      5-min Rain = 0
KPD1 131213Z 33004KT 19/18 A301 RMK A01 T01920184  RH  095%=      5-min Rain = 0
KPD1 131214Z 33004KT 19/18 A301 RMK A01 T01920184  RH  095%=      5-min Rain = 0
KPD1 131215Z 33004KT 19/18 A301 RMK A01 T01920184  RH  095%=      5-min Rain = 0
KPD1 131216Z 34003KT 19/19 A301 RMK A01 T01920185  RH  095%=      5-min Rain = 0
KPD1 131217Z 33004KT 19/19 A301 RMK A01 T01930185  RH  095%=      5-min Rain = 0
KPD1 131218Z 33004KT 19/19 A301 RMK A01 T01920185  RH  095%=      5-min Rain = 0
KPD1 131219Z 33004KT 19/19 A301 RMK A01 T01930185  RH  095%=      5-min Rain = 0
KPD1 131220Z 33005KT 19/19 A301 RMK A01 T01930186  RH  095%=      5-min Rain = 0
KPD1 131221Z 34005KT 19/19 A301 RMK A01 T01930186  RH  095%=      5-min Rain = 0
KPD1 131222Z 33003KT 19/19 A301 RMK A01 T01940186  RH  095%=      5-min Rain = 0
KPD1 131223Z 33004KT 19/19 A301 RMK A01 T01940186  RH  095%=      5-min Rain = 0
KPD1 131224Z 32004KT 19/19 A301 RMK A01 T01940186  RH  095%=      5-min Rain = 0
KPD1 131225Z 32004KT 19/19 A301 RMK A01 T01940186  RH  095%=      5-min Rain = 0
KPD1 131226Z 33004KT 20/19 A301 RMK A01 T01950187  RH  095%=      5-min Rain = 0
KPD1 131227Z 33004KT 20/19 A301 RMK A01 T01950187  RH  095%=      5-min Rain = 0
KPD1 131228Z 32006KT 20/19 A301 RMK A01 T01950187  RH  095%=      5-min Rain = 0
KPD1 131229Z 32005KT 20/19 A301 RMK A01 T01960187  RH  094%=      5-min Rain = 0
KPD1 131230Z 32004KT 20/19 A301 RMK A01 T01970187  RH  094%=      5-min Rain = 0
KPD1 131231Z 33005KT 20/19 A301 RMK A01 T01970187  RH  094%=      5-min Rain = 0
KPD1 131232Z 34004KT 20/19 A301 RMK A01 T01980188  RH  094%=      5-min Rain = 0
KPD1 131233Z 33004KT 20/19 A301 RMK A01 T01980187  RH  094%=      5-min Rain = 0
KPD1 131234Z 33005KT 20/19 A301 RMK A01 T01980187  RH  093%=      5-min Rain = 0
KPD1 131235Z 34004KT 20/19 A301 RMK A01 T01980187  RH  093%=      5-min Rain = 0
KPD1 131236Z 33005KT 20/19 A301 RMK A01 T01980187  RH  093%=      5-min Rain = 0
KPD1 131237Z 33005KT 20/19 A301 RMK A01 T01990187  RH  093%=      5-min Rain = 0
KPD1 131238Z 33004KT 20/19 A301 RMK A01 T01990187  RH  093%=      5-min Rain = 0
KPD1 131239Z 32004KT 20/19 A301 RMK A01 T01990187  RH  093%=      5-min Rain = 0
KPD1 131240Z 33004KT 20/19 A301 RMK A01 T02000187  RH  092%=      5-min Rain = 0
KPD1 131241Z 33003KT 20/19 A301 RMK A01 T02000187  RH  092%=      5-min Rain = 0
KPD1 131242Z 33003KT 20/19 A3011 RMK A01 T02000187  RH  092%=      5-min Rain = 0
KPD1 131243Z 33003KT 20/19 A3011 RMK A01 T02010188  RH  092%=      5-min Rain = 0
KPD1 131244Z 33003KT 20/19 A3011 RMK A01 T02010188  RH  092%=      5-min Rain = 0
KPD1 131245Z 32004KT 20/19 A3011 RMK A01 T02020188  RH  092%=      5-min Rain = 0
KPD1 131246Z 32004KT 20/19 A3011 RMK A01 T02020188  RH  091%=      5-min Rain = 0
KPD1 131247Z 33004KT 20/19 A3011 RMK A01 T02020188  RH  091%=      5-min Rain = 0
KPD1 131248Z 32004KT 20/19 A3011 RMK A01 T02030188  RH  091%=      5-min Rain = 0
KPD1 131249Z 32003KT 20/19 A3011 RMK A01 T02030188  RH  091%=      5-min Rain = 0
KPD1 131250Z 33003KT 20/19 A3011 RMK A01 T02040189  RH  091%=      5-min Rain = 0
KPD1 131251Z 33003KT 20/19 A3011 RMK A01 T02040189  RH  091%=      5-min Rain = 0
KPD1 131252Z 34003KT 21/19 A3011 RMK A01 T02050189  RH  091%=      5-min Rain = 0
KPD1 131253Z 33003KT 21/19 A3011 RMK A01 T02050188  RH  090%=      5-min Rain = 0
KPD1 131254Z 33003KT 21/19 A3011 RMK A01 T02060189  RH  090%=      5-min Rain = 0
KPD1 131255Z 34004KT 21/19 A3011 RMK A01 T02060189  RH  090%=      5-min Rain = 0
KPD1 131256Z 33004KT 21/19 A3011 RMK A01 T02070189  RH  089%=      5-min Rain = 0
KPD1 131257Z 34003KT 21/19 A3011 RMK A01 T02070189  RH  089%=      5-min Rain = 0
KPD1 131258Z 35003KT 21/19 A3011 RMK A01 T02080189  RH  089%=      5-min Rain = 0
KPD1 131259Z 35003KT 21/19 A3011 RMK A01 T02090189  RH  089%=      5-min Rain = 0
KPD1 131300Z 35002KT 21/19 A3011 RMK A01 T02090188  RH  088%=      5-min Rain = 0
KPD1 131301Z 35003KT 21/19 A3011 RMK A01 T02100189  RH  088%=      5-min Rain = 0
KPD1 131302Z 35004KT 21/19 A3011 RMK A01 T02100189  RH  087%=      5-min Rain = 0
KPD1 131303Z 34003KT 21/19 A3011 RMK A01 T02110189  RH  087%=      5-min Rain = 0
KPD1 131304Z 34004KT 21/19 A3011 RMK A01 T02110190  RH  087%=      5-min Rain = 0
KPD1 131305Z 35003KT 21/19 A3011 RMK A01 T02110189  RH  087%=      5-min Rain = 0
KPD1 131306Z 33004KT 21/19 A3011 RMK A01 T02120189  RH  087%=      5-min Rain = 0
KPD1 131307Z 35003KT 21/19 A3011 RMK A01 T02120189  RH  087%=      5-min Rain = 0
KPD1 131308Z 35003KT 21/19 A3011 RMK A01 T02130189  RH  087%=      5-min Rain = 0
KPD1 131309Z 34002KT 21/19 A3011 RMK A01 T02130190  RH  086%=      5-min Rain = 0
KPD1 131310Z 35002KT 21/19 A3011 RMK A01 T02140190  RH  086%=      5-min Rain = 0
KPD1 131311Z 35003KT 22/19 A3011 RMK A01 T02150190  RH  086%=      5-min Rain = 0
KPD1 131312Z 00003KT 22/19 A3011 RMK A01 T02160189  RH  085%=      5-min Rain = 0
KPD1 131313Z 01003KT 22/19 A3011 RMK A01 T02160190  RH  085%=      5-min Rain = 0
KPD1 131314Z 01003KT 22/19 A3011 RMK A01 T02160189  RH  085%=      5-min Rain = 0
KPD1 131315Z 01003KT 22/19 A3011 RMK A01 T02170190  RH  084%=      5-min Rain = 0
KPD1 131316Z 00004KT 22/19 A3011 RMK A01 T02170190  RH  084%=      5-min Rain = 0
KPD1 131317Z 00004KT 22/19 A3011 RMK A01 T02180190  RH  084%=      5-min Rain = 0
KPD1 131318Z 00004KT 22/19 A3011 RMK A01 T02180190  RH  084%=      5-min Rain = 0
KPD1 131319Z 36004KT 22/19 A3011 RMK A01 T02180189  RH  084%=      5-min Rain = 0
KPD1 131320Z 36003KT 22/19 A3011 RMK A01 T02180190  RH  084%=      5-min Rain = 0
KPD1 131321Z 01003KT 22/19 A3011 RMK A01 T02190190  RH  084%=      5-min Rain = 0
KPD1 131322Z 00004KT 22/19 A3011 RMK A01 T02190189  RH  083%=      5-min Rain = 0
KPD1 131323Z 01004KT 22/19 A3011 RMK A01 T02190190  RH  083%=      5-min Rain = 0
KPD1 131324Z 02003KT 22/19 A3011 RMK A01 T02190189  RH  083%=      5-min Rain = 0
KPD1 131325Z 01004KT 22/19 A3012 RMK A01 T02190189  RH  083%=      5-min Rain = 0
KPD1 131326Z 00004KT 22/19 A3011 RMK A01 T02190189  RH  083%=      5-min Rain = 0
KPD1 131327Z 00003KT 22/19 A3011 RMK A01 T02190188  RH  083%=      5-min Rain = 0
KPD1 131328Z 01003KT 22/19 A3011 RMK A01 T02190188  RH  083%=      5-min Rain = 0
KPD1 131329Z 01003KT 22/19 A3011 RMK A01 T02190188  RH  083%=      5-min Rain = 0
KPD1 131330Z 02003KT 22/19 A3011 RMK A01 T02190188  RH  083%=      5-min Rain = 0
KPD1 131331Z 00003KT 22/19 A3011 RMK A01 T02200189  RH  082%=      5-min Rain = 0
KPD1 131332Z 01003KT 22/19 A3011 RMK A01 T02210189  RH  082%=      5-min Rain = 0
KPD1 131333Z 00003KT 22/19 A3011 RMK A01 T02220189  RH  082%=      5-min Rain = 0
KPD1 131334Z 01003KT 22/19 A3012 RMK A01 T02220188  RH  081%=      5-min Rain = 0
KPD1 131335Z 00004KT 22/19 A3012 RMK A01 T02230188  RH  081%=      5-min Rain = 0
KPD1 131336Z 00003KT 22/19 A3012 RMK A01 T02220188  RH  081%=      5-min Rain = 0
KPD1 131337Z 01002KT 22/19 A3012 RMK A01 T02220189  RH  082%=      5-min Rain = 0
KPD1 131338Z 02004KT 22/19 A3012 RMK A01 T02230190  RH  082%=      5-min Rain = 0
KPD1 131339Z 01004KT 22/19 A3012 RMK A01 T02240189  RH  081%=      5-min Rain = 0
KPD1 131340Z 00005KT 22/19 A3012 RMK A01 T02240189  RH  081%=      5-min Rain = 0
KPD1 131341Z 00004KT 22/19 A3012 RMK A01 T02240190  RH  081%=      5-min Rain = 0
KPD1 131342Z 01005KT 23/19 A3012 RMK A01 T02250191  RH  081%=      5-min Rain = 0
KPD1 131343Z 35004KT 23/19 A3012 RMK A01 T02260191  RH  081%=      5-min Rain = 0
KPD1 131344Z 35004KT 23/19 A3012 RMK A01 T02270192  RH  081%=      5-min Rain = 0
KPD1 131345Z 36003KT 23/19 A3012 RMK A01 T02280192  RH  080%=      5-min Rain = 0
KPD1 131346Z 34004KT 23/19 A3012 RMK A01 T02290191  RH  079%=      5-min Rain = 0
KPD1 131347Z 34005KT 23/19 A3012 RMK A01 T02290190  RH  079%=      5-min Rain = 0
KPD1 131348Z 34004KT 23/19 A3012 RMK A01 T02290191  RH  079%=      5-min Rain = 0
KPD1 131349Z 33007KT 23/19 A3012 RMK A01 T02290191  RH  079%=      5-min Rain = 0
KPD1 131350Z 34006KT 23/19 A3012 RMK A01 T02290190  RH  079%=      5-min Rain = 0
KPD1 131351Z 34006KT 23/19 A3012 RMK A01 T02290190  RH  079%=      5-min Rain = 0
KPD1 131352Z 34006KT 23/19 A3012 RMK A01 T02290190  RH  078%=      5-min Rain = 0
KPD1 131353Z 34006KT 23/19 A3013 RMK A01 T02300189  RH  078%=      5-min Rain = 0
KPD1 131354Z 34008KT 23/19 A3013 RMK A01 T02290189  RH  078%=      5-min Rain = 0
KPD1 131355Z 34008KT 23/19 A3013 RMK A01 T02290189  RH  078%=      5-min Rain = 0
KPD1 131356Z 33007KT 23/19 A3013 RMK A01 T02290190  RH  078%=      5-min Rain = 0
KPD1 131357Z 33006KT 23/19 A3013 RMK A01 T02290191  RH  079%=      5-min Rain = 0
KPD1 131358Z 33006KT 23/19 A3013 RMK A01 T02300190  RH  078%=      5-min Rain = 0
KPD1 131359Z 33007KT 23/19 A3013 RMK A01 T02310190  RH  078%=      5-min Rain = 0
KPD1 131400Z 35005KT 23/19 A3013 RMK A01 T02310191  RH  078%=      5-min Rain = 0
KPD1 131401Z 00007KT 23/19 A3013 RMK A01 T02320191  RH  078%=      5-min Rain = 0
KPD1 131402Z 00006KT 23/19 A3013 RMK A01 T02320190  RH  077%=      5-min Rain = 0
KPD1 131403Z 35005KT 23/19 A3013 RMK A01 T02330192  RH  078%=      5-min Rain = 0
KPD1 131404Z 36004KT 23/19 A3013 RMK A01 T02340193  RH  078%=      5-min Rain = 0
KPD1 131405Z 35005KT 24/19 A3013 RMK A01 T02350192  RH  077%=      5-min Rain = 0
KPD1 131406Z 33005KT 24/19 A3013 RMK A01 T02360192  RH  076%=      5-min Rain = 0
KPD1 131407Z 33005KT 24/19 A3013 RMK A01 T02360192  RH  077%=      5-min Rain = 0
KPD1 131408Z 35003KT 24/19 A3013 RMK A01 T02360193  RH  077%=      5-min Rain = 0
KPD1 131409Z 35005KT 24/19 A3013 RMK A01 T02370193  RH  076%=      5-min Rain = 0
KPD1 131410Z 36005KT 24/19 A3013 RMK A01 T02380193  RH  076%=      5-min Rain = 0
KPD1 131411Z 36005KT 24/19 A3013 RMK A01 T02380192  RH  075%=      5-min Rain = 0
KPD1 131412Z 35005KT 24/19 A3013 RMK A01 T02380192  RH  075%=      5-min Rain = 0
KPD1 131413Z 36005KT 24/19 A3013 RMK A01 T02380192  RH  075%=      5-min Rain = 0
KPD1 131414Z 00006KT 24/19 A3013 RMK A01 T02390191  RH  075%=      5-min Rain = 0
KPD1 131415Z 36007KT 24/19 A3013 RMK A01 T02380190  RH  074%=      5-min Rain = 0
KPD1 131416Z 36006KT 24/19 A3013 RMK A01 T02380191  RH  075%=      5-min Rain = 0
KPD1 131417Z 01005KT 24/19 A3013 RMK A01 T02380191  RH  075%=      5-min Rain = 0
KPD1 131418Z 00006KT 24/19 A3013 RMK A01 T02390193  RH  075%=      5-min Rain = 0
KPD1 131419Z 00005KT 24/19 A3013 RMK A01 T02390191  RH  075%=      5-min Rain = 0
KPD1 131420Z 00006KT 24/19 A3013 RMK A01 T02400192  RH  075%=      5-min Rain = 0
KPD1 131421Z 35005KT 24/19 A3014 RMK A01 T02410192  RH  074%=      5-min Rain = 0
KPD1 131422Z 35007KT 24/19 A3014 RMK A01 T02420193  RH  074%=      5-min Rain = 0
KPD1 131423Z 00007KT 24/19 A3014 RMK A01 T02420191  RH  073%=      5-min Rain = 0
KPD1 131424Z 00007KT 24/19 A3014 RMK A01 T02410192  RH  074%=      5-min Rain = 0
KPD1 131425Z 01008KT 24/19 A3014 RMK A01 T02410191  RH  073%=      5-min Rain = 0
KPD1 131426Z 00006KT 24/19 A3014 RMK A01 T02400190  RH  074%=      5-min Rain = 0
KPD1 131427Z 34006KT 24/19 A3014 RMK A01 T02400191  RH  074%=      5-min Rain = 0
KPD1 131428Z 34003KT 24/19 A3014 RMK A01 T02400192  RH  075%=      5-min Rain = 0
KPD1 131429Z 36004KT 24/20 A3014 RMK A01 T02420195  RH  075%=      5-min Rain = 0
KPD1 131430Z 01006KT 24/19 A3014 RMK A01 T02440193  RH  073%=      5-min Rain = 0
KPD1 131431Z 01006KT 24/19 A3014 RMK A01 T02440193  RH  073%=      5-min Rain = 0
KPD1 131432Z 36004KT 24/19 A3014 RMK A01 T02430191  RH  073%=      5-min Rain = 0
KPD1 131433Z 00003KT 24/19 A3014 RMK A01 T02440193  RH  074%=      5-min Rain = 0
KPD1 131434Z 01006KT 24/19 A3014 RMK A01 T02430192  RH  073%=      5-min Rain = 0
KPD1 131435Z 36004KT 24/19 A3014 RMK A01 T02440192  RH  073%=      5-min Rain = 0
KPD1 131436Z 34002KT 24/19 A3014 RMK A01 T02440194  RH  074%=      5-min Rain = 0
KPD1 131437Z 02005KT 25/19 A3014 RMK A01 T02460194  RH  073%=      5-min Rain = 0
KPD1 131438Z 01003KT 25/19 A3014 RMK A01 T02460193  RH  072%=      5-min Rain = 0
KPD1 131439Z 02005KT 25/19 A3014 RMK A01 T02450193  RH  073%=      5-min Rain = 0
KPD1 131440Z 03006KT 25/19 A3014 RMK A01 T02450192  RH  072%=      5-min Rain = 0
KPD1 131441Z 03005KT 25/19 A3014 RMK A01 T02450192  RH  073%=      5-min Rain = 0
KPD1 131442Z 04004KT 25/19 A3014 RMK A01 T02460194  RH  073%=      5-min Rain = 0
KPD1 131443Z 00004KT 25/19 A3014 RMK A01 T02480192  RH  071%=      5-min Rain = 0
KPD1 131444Z 02005KT 25/19 A3014 RMK A01 T02480191  RH  070%=      5-min Rain = 0
KPD1 131445Z 02004KT 25/19 A3014 RMK A01 T02480191  RH  070%=      5-min Rain = 0
KPD1 131446Z 02005KT 25/19 A3014 RMK A01 T02480191  RH  071%=      5-min Rain = 0
KPD1 131447Z 03005KT 25/19 A3014 RMK A01 T02490190  RH  070%=      5-min Rain = 0
KPD1 131448Z 00006KT 25/19 A3014 RMK A01 T02490190  RH  069%=      5-min Rain = 0
KPD1 131449Z 02005KT 25/19 A3014 RMK A01 T02500191  RH  070%=      5-min Rain = 0
KPD1 131450Z 01005KT 25/19 A3014 RMK A01 T02500188  RH  069%=      5-min Rain = 0
KPD1 131451Z 02004KT 25/19 A3014 RMK A01 T02490186  RH  068%=      5-min Rain = 0
KPD1 131452Z 03003KT 25/19 A3014 RMK A01 T02470187  RH  069%=      5-min Rain = 0
KPD1 131453Z 00005KT 25/19 A3014 RMK A01 T02480188  RH  069%=      5-min Rain = 0
KPD1 131454Z 03004KT 25/19 A3014 RMK A01 T02490187  RH  068%=      5-min Rain = 0
KPD1 131455Z 01004KT 25/19 A3014 RMK A01 T02500190  RH  069%=      5-min Rain = 0
KPD1 131456Z 35004KT 25/19 A3014 RMK A01 T02510190  RH  069%=      5-min Rain = 0
KPD1 131457Z 35003KT 25/19 A3014 RMK A01 T02500189  RH  069%=      5-min Rain = 0
KPD1 131458Z 35004KT 25/19 A3015 RMK A01 T02500191  RH  070%=      5-min Rain = 0
KPD1 131459Z 02005KT 25/19 A3015 RMK A01 T02510190  RH  069%=      5-min Rain = 0
KPD1 131500Z 02004KT 25/19 A3015 RMK A01 T02510188  RH  068%=      5-min Rain = 0
KPD1 131501Z 08001KT 25/19 A3014 RMK A01 T02500187  RH  068%=      5-min Rain = 0
KPD1 131502Z 33002KT 25/19 A3014 RMK A01 T02500188  RH  068%=      5-min Rain = 0
KPD1 131503Z 34002KT 25/19 A3014 RMK A01 T02520191  RH  069%=      5-min Rain = 0
KPD1 131504Z 01004KT 25/19 A3014 RMK A01 T02540192  RH  069%=      5-min Rain = 0
KPD1 131505Z 01003KT 26/19 A3015 RMK A01 T02560192  RH  068%=      5-min Rain = 0
KPD1 131506Z 06003KT 26/19 A3015 RMK A01 T02580190  RH  066%=      5-min Rain = 0
KPD1 131507Z 06004KT 26/19 A3015 RMK A01 T02590189  RH  065%=      5-min Rain = 0
KPD1 131508Z 04005KT 26/19 A3014 RMK A01 T02600187  RH  064%=      5-min Rain = 0
KPD1 131509Z 03004KT 26/19 A3014 RMK A01 T02590187  RH  064%=      5-min Rain = 0
KPD1 131510Z 03003KT 26/19 A3014 RMK A01 T02570186  RH  065%=      5-min Rain = 0
KPD1 131511Z 06003KT 26/19 A3014 RMK A01 T02550188  RH  066%=      5-min Rain = 0
KPD1 131512Z 34002KT 26/19 A3014 RMK A01 T02550188  RH  066%=      5-min Rain = 0
KPD1 131513Z 35004KT 26/19 A3014 RMK A01 T02580191  RH  067%=      5-min Rain = 0
KPD1 131514Z 00004KT 26/19 A3014 RMK A01 T02580189  RH  066%=      5-min Rain = 0
KPD1 131515Z 03003KT 26/19 A3015 RMK A01 T02590191  RH  066%=      5-min Rain = 0
KPD1 131516Z 04004KT 26/19 A3015 RMK A01 T02600189  RH  065%=      5-min Rain = 0
KPD1 131517Z 01003KT 26/19 A3015 RMK A01 T02590191  RH  066%=      5-min Rain = 0
KPD1 131518Z 01005KT 26/19 A3015 RMK A01 T02600192  RH  066%=      5-min Rain = 0
KPD1 131519Z 05003KT 26/19 A3015 RMK A01 T02610189  RH  065%=      5-min Rain = 0
KPD1 131520Z 05002KT 26/19 A3015 RMK A01 T02600190  RH  065%=      5-min Rain = 0
KPD1 131521Z 35004KT 26/19 A3015 RMK A01 T02600190  RH  065%=      5-min Rain = 0
KPD1 131522Z 35005KT 26/19 A3014 RMK A01 T02600189  RH  065%=      5-min Rain = 0
KPD1 131523Z 32003KT 26/19 A3014 RMK A01 T02600189  RH  065%=      5-min Rain = 0
KPD1 131524Z 00003KT 26/19 A3014 RMK A01 T02600190  RH  065%=      5-min Rain = 0
KPD1 131525Z 35003KT 26/19 A3014 RMK A01 T02620189  RH  064%=      5-min Rain = 0
KPD1 131526Z 33003KT 26/19 A3014 RMK A01 T02620191  RH  065%=      5-min Rain = 0
KPD1 131527Z 31003KT 26/19 A3014 RMK A01 T02620189  RH  064%=      5-min Rain = 0
KPD1 131528Z 33005KT 26/19 A3014 RMK A01 T02630190  RH  064%=      5-min Rain = 0
KPD1 131529Z 35005KT 27/19 A3015 RMK A01 T02650191  RH  064%=      5-min Rain = 0
KPD1 131530Z 01004KT 27/19 A3015 RMK A01 T02670191  RH  063%=      5-min Rain = 0
KPD1 131531Z 36004KT 27/19 A3015 RMK A01 T02670189  RH  062%=      5-min Rain = 0
KPD1 131532Z 02004KT 27/19 A3015 RMK A01 T02670189  RH  063%=      5-min Rain = 0
KPD1 131533Z 03005KT 27/19 A3015 RMK A01 T02660189  RH  063%=      5-min Rain = 0
KPD1 131534Z 03003KT 26/19 A3015 RMK A01 T02640187  RH  063%=      5-min Rain = 0
KPD1 131535Z 03001KT 26/19 A3015 RMK A01 T02630191  RH  064%=      5-min Rain = 0
KPD1 131536Z 04001KT 27/19 A3015 RMK A01 T02660191  RH  063%=      5-min Rain = 0
KPD1 131537Z 07003KT 27/19 A3015 RMK A01 T02670190  RH  063%=      5-min Rain = 0
KPD1 131538Z 07003KT 27/19 A3015 RMK A01 T02690192  RH  063%=      5-min Rain = 0
KPD1 131539Z 04002KT 27/19 A3015 RMK A01 T02710190  RH  061%=      5-min Rain = 0
KPD1 131540Z 04004KT 27/19 A3015 RMK A01 T02720187  RH  060%=      5-min Rain = 0
KPD1 131541Z 04005KT 27/19 A3015 RMK A01 T02720187  RH  060%=      5-min Rain = 0
KPD1 131542Z 06005KT 27/18 A3015 RMK A01 T02710184  RH  059%=      5-min Rain = 0
KPD1 131543Z 04006KT 27/19 A3015 RMK A01 T02690187  RH  061%=      5-min Rain = 0
KPD1 131544Z 02003KT 27/19 A3015 RMK A01 T02700189  RH  061%=      5-min Rain = 0
KPD1 131545Z 01005KT 27/19 A3015 RMK A01 T02720188  RH  060%=      5-min Rain = 0
KPD1 131546Z 04004KT 27/19 A3015 RMK A01 T02730186  RH  059%=      5-min Rain = 0
KPD1 131547Z 05004KT 27/19 A3015 RMK A01 T02720185  RH  059%=      5-min Rain = 0
KPD1 131548Z 04003KT 27/19 A3015 RMK A01 T02720185  RH  059%=      5-min Rain = 0
KPD1 131549Z 04002KT 27/18 A3015 RMK A01 T02710183  RH  058%=      5-min Rain = 0
KPD1 131550Z 06004KT 27/19 A3015 RMK A01 T02710185  RH  059%=      5-min Rain = 0
KPD1 131551Z 05002KT 27/19 A3015 RMK A01 T02710187  RH  060%=      5-min Rain = 0
KPD1 131552Z 06003KT 27/19 A3015 RMK A01 T02710186  RH  060%=      5-min Rain = 0
KPD1 131553Z 06001KT 27/19 A3015 RMK A01 T02710186  RH  060%=      5-min Rain = 0
KPD1 131554Z 02000KT 27/19 A3015 RMK A01 T02730185  RH  059%=      5-min Rain = 0
KPD1 131555Z 04002KT 27/18 A3015 RMK A01 T02730184  RH  058%=      5-min Rain = 0
KPD1 131556Z 02005KT 27/18 A3015 RMK A01 T02710184  RH  059%=      5-min Rain = 0
KPD1 131557Z 03004KT 27/19 A3015 RMK A01 T02700186  RH  060%=      5-min Rain = 0
KPD1 131558Z 02002KT 27/19 A3015 RMK A01 T02710188  RH  060%=      5-min Rain = 0
KPD1 131559Z 05004KT 27/19 A3015 RMK A01 T02740187  RH  059%=      5-min Rain = 0
KPD1 131600Z 00005KT 28/19 A3015 RMK A01 T02750187  RH  059%=      5-min Rain = 0
KPD1 131601Z 02004KT 28/19 A3015 RMK A01 T02760187  RH  058%=      5-min Rain = 0
KPD1 131602Z 01005KT 28/19 A3015 RMK A01 T02750186  RH  058%=      5-min Rain = 0
KPD1 131603Z 35003KT 27/19 A3015 RMK A01 T02740186  RH  059%=      5-min Rain = 0
KPD1 131604Z 33002KT 27/19 A3015 RMK A01 T02730186  RH  059%=      5-min Rain = 0
KPD1 131605Z 34002KT 27/19 A3015 RMK A01 T02740186  RH  059%=      5-min Rain = 0
KPD1 131606Z 02002KT 28/19 A3015 RMK A01 T02760189  RH  059%=      5-min Rain = 0
KPD1 131607Z 04004KT 28/19 A3015 RMK A01 T02800189  RH  058%=      5-min Rain = 0
KPD1 131608Z 02005KT 28/19 A3015 RMK A01 T02810188  RH  057%=      5-min Rain = 0
KPD1 131609Z 34004KT 28/19 A3015 RMK A01 T02800186  RH  057%=      5-min Rain = 0
KPD1 131610Z 34001KT 28/19 A3015 RMK A01 T02780185  RH  057%=      5-min Rain = 0
KPD1 131611Z 04004KT 28/19 A3015 RMK A01 T02780186  RH  057%=      5-min Rain = 0
KPD1 131612Z 02006KT 28/19 A3015 RMK A01 T02790186  RH  057%=      5-min Rain = 0
KPD1 131613Z 05004KT 28/18 A3015 RMK A01 T02790184  RH  056%=      5-min Rain = 0
KPD1 131614Z 06005KT 28/19 A3015 RMK A01 T02780187  RH  058%=      5-min Rain = 0
KPD1 131615Z 05005KT 28/19 A3015 RMK A01 T02800189  RH  057%=      5-min Rain = 0
KPD1 131616Z 06004KT 28/19 A3015 RMK A01 T02810186  RH  056%=      5-min Rain = 0
KPD1 131617Z 08002KT 28/19 A3015 RMK A01 T02800186  RH  056%=      5-min Rain = 0
KPD1 131618Z 05002KT 28/19 A3015 RMK A01 T02800186  RH  057%=      5-min Rain = 0
KPD1 131619Z 06004KT 28/19 A3015 RMK A01 T02800186  RH  056%=      5-min Rain = 0
KPD1 131620Z 11003KT 28/19 A3015 RMK A01 T02810185  RH  056%=      5-min Rain = 0
KPD1 131621Z 05003G8KT 28/19 A3015 RMK A01 T02820185  RH  056%=      5-min Rain = 0
KPD1 131622Z 05007KT 28/19 A3015 RMK A01 T02810185  RH  056%=      5-min Rain = 0
KPD1 131623Z 07005KT 28/19 A3015 RMK A01 T02810185  RH  056%=      5-min Rain = 0
KPD1 131624Z 06003KT 28/18 A3015 RMK A01 T02820184  RH  055%=      5-min Rain = 0
KPD1 131625Z 06005KT 28/18 A3015 RMK A01 T02810183  RH  055%=      5-min Rain = 0
KPD1 131626Z 08004KT 28/19 A3015 RMK A01 T02800185  RH  056%=      5-min Rain = 0
KPD1 131627Z 34000KT 28/18 A3015 RMK A01 T02810182  RH  055%=      5-min Rain = 0
KPD1 131628Z 29002KT 28/18 A3015 RMK A01 T02800180  RH  054%=      5-min Rain = 0
KPD1 131629Z 31002KT 28/18 A3015 RMK A01 T02780181  RH  056%=      5-min Rain = 0
KPD1 131630Z 33001KT 28/18 A3015 RMK A01 T02780183  RH  056%=      5-min Rain = 0
KPD1 131631Z 05003KT 28/18 A3015 RMK A01 T02810184  RH  056%=      5-min Rain = 0
KPD1 131632Z 03005KT 28/19 A3015 RMK A01 T02820185  RH  055%=      5-min Rain = 0
KPD1 131633Z 02004KT 28/19 A3015 RMK A01 T02830186  RH  056%=      5-min Rain = 0
KPD1 131634Z 01006KT 29/19 A3015 RMK A01 T02850187  RH  055%=      5-min Rain = 0
KPD1 131635Z 01004KT 29/19 A3015 RMK A01 T02850187  RH  055%=      5-min Rain = 0
KPD1 131636Z 08003KT 29/19 A3015 RMK A01 T02860188  RH  055%=      5-min Rain = 0
KPD1 131637Z 07006KT 29/19 A3015 RMK A01 T02870186  RH  054%=      5-min Rain = 0
KPD1 131638Z 06004KT 29/19 A3015 RMK A01 T02880188  RH  055%=      5-min Rain = 0
KPD1 131639Z 10004KT 29/19 A3015 RMK A01 T02890186  RH  054%=      5-min Rain = 0
KPD1 131640Z 06005KT 29/19 A3015 RMK A01 T02870187  RH  055%=      5-min Rain = 0
KPD1 131641Z 03005KT 29/19 A3015 RMK A01 T02870188  RH  055%=      5-min Rain = 0
KPD1 131642Z 02006KT 29/19 A3015 RMK A01 T02880189  RH  055%=      5-min Rain = 0
KPD1 131643Z 05003KT 29/19 A3015 RMK A01 T02900189  RH  054%=      5-min Rain = 0
KPD1 131644Z 04006KT 29/19 A3015 RMK A01 T02920191  RH  055%=      5-min Rain = 0
KPD1 131645Z 02008KT 29/19 A3015 RMK A01 T02930186  RH  053%=      5-min Rain = 0
KPD1 131646Z 03008KT 29/19 A3015 RMK A01 T02920188  RH  053%=      5-min Rain = 0
KPD1 131647Z 03007KT 29/19 A3015 RMK A01 T02910187  RH  054%=      5-min Rain = 0
KPD1 131648Z 05007KT 29/19 A3016 RMK A01 T02890186  RH  054%=      5-min Rain = 0
KPD1 131649Z 06004KT 29/19 A3016 RMK A01 T02870186  RH  054%=      5-min Rain = 0
KPD1 131650Z 05006KT 29/19 A3016 RMK A01 T02870187  RH  055%=      5-min Rain = 0
KPD1 131651Z 03004KT 29/19 A3016 RMK A01 T02890188  RH  054%=      5-min Rain = 0
KPD1 131652Z 01002KT 29/19 A3016 RMK A01 T02900188  RH  054%=      5-min Rain = 0
KPD1 131653Z 06004KT 29/19 A3016 RMK A01 T02920189  RH  054%=      5-min Rain = 0
KPD1 131654Z 06005KT 29/19 A3016 RMK A01 T02920188  RH  053%=      5-min Rain = 0
KPD1 131655Z 05006KT 29/19 A3016 RMK A01 T02920189  RH  054%=      5-min Rain = 0
KPD1 131656Z 07005KT 29/19 A3016 RMK A01 T02920189  RH  054%=      5-min Rain = 0
KPD1 131657Z 07004KT 29/19 A3016 RMK A01 T02930187  RH  053%=      5-min Rain = 0
KPD1 131658Z 04007KT 29/19 A3016 RMK A01 T02930188  RH  053%=      5-min Rain = 0
KPD1 131659Z 06006KT 29/19 A3016 RMK A01 T02930189  RH  054%=      5-min Rain = 0
KPD1 131700Z 06006KT 29/19 A3016 RMK A01 T02940186  RH  052%=      5-min Rain = 0
KPD1 131701Z 06006KT 29/19 A3016 RMK A01 T02940187  RH  052%=      5-min Rain = 0
KPD1 131702Z 05003KT 29/19 A3016 RMK A01 T02940186  RH  052%=      5-min Rain = 0
KPD1 131703Z 04004KT 29/19 A3016 RMK A01 T02940186  RH  052%=      5-min Rain = 0
KPD1 131704Z 03004G9KT 29/19 A3016 RMK A01 T02930188  RH  053%=      5-min Rain = 0
KPD1 131705Z 05007KT 29/19 A3016 RMK A01 T02940188  RH  053%=      5-min Rain = 0
KPD1 131706Z 03006KT 30/19 A3016 RMK A01 T02960187  RH  052%=      5-min Rain = 0
KPD1 131707Z 03002KT 30/19 A3016 RMK A01 T02950185  RH  052%=      5-min Rain = 0
KPD1 131708Z 01003KT 29/19 A3016 RMK A01 T02930187  RH  053%=      5-min Rain = 0
KPD1 131709Z 01006KT 29/19 A3016 RMK A01 T02940188  RH  053%=      5-min Rain = 0
KPD1 131710Z 07007KT 30/19 A3016 RMK A01 T02970188  RH  052%=      5-min Rain = 0
KPD1 131711Z 03004KT 30/19 A3016 RMK A01 T02980190  RH  052%=      5-min Rain = 0
KPD1 131712Z 04005KT 30/19 A3016 RMK A01 T03000190  RH  052%=      5-min Rain = 0
KPD1 131713Z 05007KT 30/19 A3016 RMK A01 T03020189  RH  051%=      5-min Rain = 0
KPD1 131714Z 03005KT 30/19 A3016 RMK A01 T03000186  RH  051%=      5-min Rain = 0
KPD1 131715Z 05006KT 30/19 A3016 RMK A01 T02960187  RH  052%=      5-min Rain = 0
KPD1 131716Z 05007KT 30/19 A3016 RMK A01 T02960188  RH  052%=      5-min Rain = 0
KPD1 131717Z 06006KT 30/19 A3016 RMK A01 T02960187  RH  052%=      5-min Rain = 0
KPD1 131718Z 07006KT 30/19 A3016 RMK A01 T02950189  RH  053%=      5-min Rain = 0
KPD1 131719Z 07004KT 30/19 A3016 RMK A01 T02980190  RH  052%=      5-min Rain = 0
KPD1 131720Z 07005KT 30/19 A3016 RMK A01 T03000191  RH  052%=      5-min Rain = 0
KPD1 131721Z 07006KT 30/19 A3016 RMK A01 T03030191  RH  051%=      5-min Rain = 0
KPD1 131722Z 03007KT 31/19 A3016 RMK A01 T03050190  RH  050%=      5-min Rain = 0
KPD1 131723Z 02006KT 30/19 A3016 RMK A01 T03030190  RH  051%=      5-min Rain = 0
KPD1 131724Z 01005KT 30/19 A3016 RMK A01 T03010189  RH  051%=      5-min Rain = 0
KPD1 131725Z 02006KT 30/19 A3016 RMK A01 T02990190  RH  052%=      5-min Rain = 0
KPD1 131726Z 01007KT 30/19 A3016 RMK A01 T02990188  RH  052%=      5-min Rain = 0
KPD1 131727Z 03007KT 30/19 A3016 RMK A01 T02980188  RH  052%=      5-min Rain = 0
KPD1 131728Z 03007KT 30/19 A3016 RMK A01 T03000189  RH  051%=      5-min Rain = 0
KPD1 131729Z 03006KT 30/19 A3016 RMK A01 T03000189  RH  051%=      5-min Rain = 0
KPD1 131730Z 03006KT 30/19 A3016 RMK A01 T03010190  RH  051%=      5-min Rain = 0
KPD1 131731Z 03008KT 30/19 A3016 RMK A01 T03010190  RH  051%=      5-min Rain = 0
KPD1 131732Z 02004KT 30/19 A3016 RMK A01 T03000189  RH  051%=      5-min Rain = 0
KPD1 131733Z 05007KT 30/19 A3016 RMK A01 T03010188  RH  051%=      5-min Rain = 0
KPD1 131734Z 06006KT 30/19 A3016 RMK A01 T03020190  RH  051%=      5-min Rain = 0
KPD1 131735Z 03006KT 30/19 A3015 RMK A01 T03040187  RH  050%=      5-min Rain = 0
KPD1 131736Z 03010KT 30/19 A3015 RMK A01 T03030186  RH  050%=      5-min Rain = 0
KPD1 131737Z 04005KT 30/19 A3015 RMK A01 T03020185  RH  050%=      5-min Rain = 0
KPD1 131738Z 03006KT 30/18 A3015 RMK A01 T03010184  RH  049%=      5-min Rain = 0
KPD1 131739Z 03004KT 30/19 A3015 RMK A01 T03010186  RH  050%=      5-min Rain = 0
KPD1 131740Z 06007KT 31/19 A3015 RMK A01 T03060190  RH  050%=      5-min Rain = 0
KPD1 131741Z 07007KT 31/19 A3015 RMK A01 T03100189  RH  048%=      5-min Rain = 0
KPD1 131742Z 04007KT 31/19 A3015 RMK A01 T03100191  RH  049%=      5-min Rain = 0
KPD1 131743Z 05007KT 31/19 A3015 RMK A01 T03120187  RH  047%=      5-min Rain = 0
KPD1 131744Z 08001KT 31/19 A3015 RMK A01 T03070185  RH  048%=      5-min Rain = 0
KPD1 131745Z 03004G10KT 31/19 A3015 RMK A01 T03050186  RH  049%=      5-min Rain = 0
KPD1 131746Z 04006KT 31/19 A3015 RMK A01 T03050187  RH  049%=      5-min Rain = 0
KPD1 131747Z 02009KT 31/19 A3015 RMK A01 T03050187  RH  049%=      5-min Rain = 0
KPD1 131748Z 01007KT 30/18 A3015 RMK A01 T03030184  RH  049%=      5-min Rain = 0
KPD1 131749Z 03009KT 30/18 A3015 RMK A01 T03000183  RH  049%=      5-min Rain = 0
KPD1 131750Z 03008KT 30/18 A3015 RMK A01 T02990183  RH  050%=      5-min Rain = 0
KPD1 131751Z 04010KT 30/18 A3015 RMK A01 T03010184  RH  049%=      5-min Rain = 0
KPD1 131752Z 03009KT 30/19 A3015 RMK A01 T03030185  RH  049%=      5-min Rain = 0
KPD1 131753Z 04007KT 31/18 A3015 RMK A01 T03050184  RH  049%=      5-min Rain = 0
KPD1 131754Z 02006KT 31/18 A3015 RMK A01 T03050183  RH  048%=      5-min Rain = 0
KPD1 131755Z 03006KT 31/18 A3015 RMK A01 T03050184  RH  048%=      5-min Rain = 0
KPD1 131756Z 06008KT 31/19 A3015 RMK A01 T03090187  RH  048%=      5-min Rain = 0
KPD1 131757Z 04007KT 31/19 A3015 RMK A01 T03100186  RH  048%=      5-min Rain = 0
KPD1 131758Z 07008KT 31/19 A3015 RMK A01 T03110185  RH  047%=      5-min Rain = 0
KPD1 131759Z 12005KT 31/18 A3015 RMK A01 T03120184  RH  046%=      5-min Rain = 0
KPD1 131800Z 13004KT 31/19 A3015 RMK A01 T03110185  RH  047%=      5-min Rain = 0
KPD1 131801Z 06004KT 31/19 A3015 RMK A01 T03120186  RH  047%=      5-min Rain = 0
KPD1 131802Z 07007KT 32/19 A3015 RMK A01 T03150186  RH  046%=      5-min Rain = 0
KPD1 131803Z 04004KT 32/19 A3015 RMK A01 T03150185  RH  046%=      5-min Rain = 0
KPD1 131804Z 05006KT 31/19 A3015 RMK A01 T03120186  RH  047%=      5-min Rain = 0
KPD1 131805Z 07011KT 31/18 A3015 RMK A01 T03110184  RH  047%=      5-min Rain = 0
KPD1 131806Z 07008KT 31/18 A3015 RMK A01 T03090184  RH  047%=      5-min Rain = 0
KPD1 131807Z 03010KT 31/18 A3015 RMK A01 T03100184  RH  047%=      5-min Rain = 0
KPD1 131808Z 03008KT 31/18 A3015 RMK A01 T03100184  RH  047%=      5-min Rain = 0
KPD1 131809Z 02007KT 31/19 A3015 RMK A01 T03100185  RH  047%=      5-min Rain = 0
KPD1 131810Z 35007KT 31/19 A3015 RMK A01 T03100186  RH  048%=      5-min Rain = 0
KPD1 131811Z 36009KT 31/19 A3015 RMK A01 T03120186  RH  047%=      5-min Rain = 0
KPD1 131812Z 04009KT 31/19 A3015 RMK A01 T03110186  RH  047%=      5-min Rain = 0
KPD1 131813Z 05008KT 31/19 A3015 RMK A01 T03120187  RH  047%=      5-min Rain = 0
KPD1 131814Z 03008KT 31/19 A3015 RMK A01 T03130185  RH  047%=      5-min Rain = 0
KPD1 131815Z 02007KT 31/18 A3015 RMK A01 T03130184  RH  046%=      5-min Rain = 0
KPD1 131816Z 01005KT 31/19 A3015 RMK A01 T03110185  RH  047%=      5-min Rain = 0
KPD1 131817Z 02009KT 31/18 A3015 RMK A01 T03140184  RH  046%=      5-min Rain = 0
KPD1 131818Z 02010KT 32/18 A3015 RMK A01 T03150184  RH  046%=      5-min Rain = 0
KPD1 131819Z 01009KT 31/18 A3014 RMK A01 T03120182  RH  046%=      5-min Rain = 0
KPD1 131820Z 05004KT 31/19 A3015 RMK A01 T03110185  RH  047%=      5-min Rain = 0
KPD1 131821Z 07005KT 31/18 A3014 RMK A01 T03110184  RH  047%=      5-min Rain = 0
KPD1 131822Z 06002KT 31/19 A3014 RMK A01 T03120186  RH  047%=      5-min Rain = 0
KPD1 131823Z 05004KT 32/19 A3014 RMK A01 T03150187  RH  047%=      5-min Rain = 0
KPD1 131824Z 02006KT 32/19 A3014 RMK A01 T03180189  RH  046%=      5-min Rain = 0
KPD1 131825Z 01006KT 32/19 A3014 RMK A01 T03220187  RH  045%=      5-min Rain = 0
KPD1 131826Z 03004KT 32/19 A3014 RMK A01 T03200185  RH  045%=      5-min Rain = 0
KPD1 131827Z 06009KT 32/19 A3014 RMK A01 T03180186  RH  045%=      5-min Rain = 0
KPD1 131828Z 06009KT 32/19 A3014 RMK A01 T03190185  RH  045%=      5-min Rain = 0
KPD1 131829Z 06007KT 32/18 A3014 RMK A01 T03190183  RH  044%=      5-min Rain = 0
KPD1 131830Z 05006KT 32/18 A3014 RMK A01 T03170184  RH  045%=      5-min Rain = 0
KPD1 131831Z 02008G13KT 32/18 A3014 RMK A01 T03150182  RH  045%=      5-min Rain = 0
KPD1 131832Z 02010KT 32/18 A3014 RMK A01 T03150180  RH  045%=      5-min Rain = 0
KPD1 131833Z 02004KT 31/18 A3014 RMK A01 T03140181  RH  045%=      5-min Rain = 0
KPD1 131834Z 00004KT 32/18 A3014 RMK A01 T03160184  RH  045%=      5-min Rain = 0
KPD1 131835Z 05005KT 32/18 A3014 RMK A01 T03190183  RH  045%=      5-min Rain = 0
KPD1 131836Z 03011G16KT 32/18 A3014 RMK A01 T03210183  RH  044%=      5-min Rain = 0
KPD1 131837Z 06008KT 32/18 A3014 RMK A01 T03210181  RH  043%=      5-min Rain = 0
KPD1 131838Z 05002KT 32/18 A3014 RMK A01 T03190182  RH  044%=      5-min Rain = 0
KPD1 131839Z 03002KT 32/18 A3014 RMK A01 T03200182  RH  044%=      5-min Rain = 0
KPD1 131840Z 03005KT 32/18 A3014 RMK A01 T03200181  RH  044%=      5-min Rain = 0
KPD1 131841Z 03005KT 32/18 A3014 RMK A01 T03190180  RH  044%=      5-min Rain = 0
KPD1 131842Z 04005KT 32/18 A3014 RMK A01 T03170180  RH  044%=      5-min Rain = 0
KPD1 131843Z 04010KT 32/18 A3014 RMK A01 T03180178  RH  043%=      5-min Rain = 0
KPD1 131844Z 04008KT 32/18 A3014 RMK A01 T03170176  RH  043%=      5-min Rain = 0
KPD1 131845Z 04006KT 31/18 A3014 RMK A01 T03140175  RH  044%=      5-min Rain = 0
KPD1 131846Z 04008KT 31/18 A3014 RMK A01 T03110177  RH  045%=      5-min Rain = 0
KPD1 131847Z 05005KT 31/18 A3014 RMK A01 T03110178  RH  045%=      5-min Rain = 0
KPD1 131848Z 07007KT 31/18 A3014 RMK A01 T03140180  RH  045%=      5-min Rain = 0
KPD1 131849Z 09009KT 32/18 A3014 RMK A01 T03170180  RH  044%=      5-min Rain = 0
KPD1 131850Z 08008KT 32/18 A3014 RMK A01 T03190181  RH  044%=      5-min Rain = 0
KPD1 131851Z 07007KT 32/18 A3014 RMK A01 T03220182  RH  043%=      5-min Rain = 0
KPD1 131852Z 08007KT 33/18 A3014 RMK A01 T03250183  RH  043%=      5-min Rain = 0
KPD1 131853Z 03006KT 33/18 A3014 RMK A01 T03270182  RH  042%=      5-min Rain = 0
KPD1 131854Z 02005KT 33/18 A3014 RMK A01 T03260179  RH  042%=      5-min Rain = 0
KPD1 131855Z 05003KT 32/18 A3014 RMK A01 T03230179  RH  042%=      5-min Rain = 0
KPD1 131856Z 06008KT 32/18 A3014 RMK A01 T03220181  RH  043%=      5-min Rain = 0
KPD1 131857Z 07007KT 32/18 A3014 RMK A01 T03240182  RH  043%=      5-min Rain = 0
KPD1 131858Z 08006KT 32/18 A3014 RMK A01 T03240182  RH  043%=      5-min Rain = 0
KPD1 131859Z 09006KT 32/18 A3014 RMK A01 T03240183  RH  043%=      5-min Rain = 0
KPD1 131900Z 09005KT 33/18 A3014 RMK A01 T03260183  RH  043%=      5-min Rain = 0
KPD1 131901Z 05006G11KT 33/18 A3014 RMK A01 T03250183  RH  043%=      5-min Rain = 0
KPD1 131902Z 06008KT 32/18 A3014 RMK A01 T03210177  RH  042%=      5-min Rain = 0
KPD1 131903Z 04006KT 32/18 A3014 RMK A01 T03150175  RH  043%=      5-min Rain = 0
KPD1 131904Z 04009KT 31/18 A3014 RMK A01 T03120176  RH  044%=      5-min Rain = 0
KPD1 131905Z 06009G14KT 31/18 A3013 RMK A01 T03140176  RH  044%=      5-min Rain = 0
KPD1 131906Z 04007KT 32/18 A3014 RMK A01 T03180180  RH  044%=      5-min Rain = 0
KPD1 131907Z 09008KT 32/18 A3014 RMK A01 T03230179  RH  042%=      5-min Rain = 0
KPD1 131908Z 09004KT 33/18 A3013 RMK A01 T03250177  RH  041%=      5-min Rain = 0
KPD1 131909Z 08008G13KT 33/18 A3013 RMK A01 T03280180  RH  042%=      5-min Rain = 0
KPD1 131910Z 09007KT 33/18 A3014 RMK A01 T03320179  RH  040%=      5-min Rain = 0
KPD1 131911Z 12006KT 33/18 A3013 RMK A01 T03340180  RH  040%=      5-min Rain = 0
KPD1 131912Z 12006KT 34/18 A3013 RMK A01 T03360179  RH  039%=      5-min Rain = 0
KPD1 131913Z 09003KT 33/18 A3013 RMK A01 T03320178  RH  040%=      5-min Rain = 0
KPD1 131914Z 06004KT 33/18 A3014 RMK A01 T03310180  RH  041%=      5-min Rain = 0
KPD1 131915Z 03005KT 33/18 A3013 RMK A01 T03290178  RH  041%=      5-min Rain = 0
KPD1 131916Z 02006KT 33/18 A3013 RMK A01 T03260177  RH  041%=      5-min Rain = 0
KPD1 131917Z 03003KT 32/18 A3013 RMK A01 T03230179  RH  042%=      5-min Rain = 0
KPD1 131918Z 01007KT 32/18 A3013 RMK A01 T03230178  RH  042%=      5-min Rain = 0
KPD1 131919Z 05008KT 32/18 A3013 RMK A01 T03240178  RH  042%=      5-min Rain = 0
KPD1 131920Z 06010KT 33/18 A3013 RMK A01 T03270178  RH  041%=      5-min Rain = 0
KPD1 131921Z 06007KT 33/17 A3013 RMK A01 T03270174  RH  040%=      5-min Rain = 0
KPD1 131922Z 06009KT 33/18 A3013 RMK A01 T03260176  RH  041%=      5-min Rain = 0
KPD1 131923Z 07006KT 33/18 A3013 RMK A01 T03280179  RH  041%=      5-min Rain = 0
KPD1 131924Z 09007KT 33/18 A3013 RMK A01 T03300178  RH  040%=      5-min Rain = 0
KPD1 131925Z 10005KT 33/18 A3013 RMK A01 T03290177  RH  040%=      5-min Rain = 0
KPD1 131926Z 15006KT 33/18 A3013 RMK A01 T03280177  RH  041%=      5-min Rain = 0
KPD1 131927Z 14003KT 33/18 A3013 RMK A01 T03280178  RH  041%=      5-min Rain = 0
KPD1 131928Z 08004G9KT 33/18 A3013 RMK A01 T03270177  RH  041%=      5-min Rain = 0
KPD1 131929Z 07008KT 32/18 A3013 RMK A01 T03240176  RH  041%=      5-min Rain = 0
KPD1 131930Z 08008KT 32/18 A3013 RMK A01 T03220178  RH  042%=      5-min Rain = 0
KPD1 131931Z 06006KT 32/18 A3013 RMK A01 T03240178  RH  042%=      5-min Rain = 0
KPD1 131932Z 04007G12KT 33/18 A3013 RMK A01 T03260177  RH  041%=      5-min Rain = 0
KPD1 131933Z 04005KT 33/18 A3013 RMK A01 T03290180  RH  041%=      5-min Rain = 0
KPD1 131934Z 02007KT 34/18 A3013 RMK A01 T03350180  RH  040%=      5-min Rain = 0
KPD1 131935Z 04005KT 34/18 A3013 RMK A01 T03360178  RH  039%=      5-min Rain = 0
KPD1 131936Z 07007G12KT 33/18 A3013 RMK A01 T03320176  RH  039%=      5-min Rain = 0
KPD1 131937Z 05008KT 33/17 A3013 RMK A01 T03280174  RH  040%=      5-min Rain = 0
KPD1 131938Z 07006KT 33/18 A3013 RMK A01 T03250175  RH  041%=      5-min Rain = 0
KPD1 131939Z 08007KT 33/18 A3013 RMK A01 T03260176  RH  041%=      5-min Rain = 0
KPD1 131940Z 07006KT 33/18 A3013 RMK A01 T03310178  RH  040%=      5-min Rain = 0
KPD1 131941Z 04009KT 33/18 A3013 RMK A01 T03330176  RH  039%=      5-min Rain = 0
KPD1 131942Z 04007KT 33/17 A3013 RMK A01 T03290174  RH  040%=      5-min Rain = 0
KPD1 131943Z 03006KT 32/17 A3013 RMK A01 T03230172  RH  040%=      5-min Rain = 0
KPD1 131944Z 05006KT 32/17 A3013 RMK A01 T03200173  RH  041%=      5-min Rain = 0
KPD1 131945Z 04006KT 32/17 A3013 RMK A01 T03170173  RH  042%=      5-min Rain = 0
KPD1 131946Z 04006KT 32/17 A3013 RMK A01 T03170174  RH  042%=      5-min Rain = 0
KPD1 131947Z 05005KT 32/17 A3013 RMK A01 T03200174  RH  042%=      5-min Rain = 0
KPD1 131948Z 04007KT 32/17 A3013 RMK A01 T03230173  RH  041%=      5-min Rain = 0
KPD1 131949Z 05004KT 32/17 A3013 RMK A01 T03240173  RH  040%=      5-min Rain = 0
KPD1 131950Z 06006KT 33/18 A3013 RMK A01 T03270176  RH  041%=      5-min Rain = 0
KPD1 131951Z 06007KT 33/18 A3013 RMK A01 T03320175  RH  039%=      5-min Rain = 0
KPD1 131952Z 09007KT 33/17 A3013 RMK A01 T03320170  RH  038%=      5-min Rain = 0
KPD1 131953Z 10007KT 33/17 A3013 RMK A01 T03270167  RH  039%=      5-min Rain = 0
KPD1 131954Z 11007KT 32/17 A3013 RMK A01 T03230168  RH  040%=      5-min Rain = 0
KPD1 131955Z 10006KT 32/17 A3012 RMK A01 T03240171  RH  040%=      5-min Rain = 0
KPD1 131956Z 09002KT 33/17 A3012 RMK A01 T03270170  RH  039%=      5-min Rain = 0
KPD1 131957Z 11002KT 33/17 A3012 RMK A01 T03310173  RH  039%=      5-min Rain = 0
KPD1 131958Z 08005KT 34/17 A3012 RMK A01 T03350173  RH  038%=      5-min Rain = 0
KPD1 131959Z 08007KT 34/17 A3012 RMK A01 T03360172  RH  038%=      5-min Rain = 0
KPD1 132000Z 05006KT 34/17 A3012 RMK A01 T03350172  RH  038%=      5-min Rain = 0
KPD1 132001Z 03008G15KT 33/17 A3012 RMK A01 T03330171  RH  038%=      5-min Rain = 0
KPD1 132002Z 05010KT 33/17 A3012 RMK A01 T03290168  RH  038%=      5-min Rain = 0
KPD1 132003Z 05008KT 33/17 A3012 RMK A01 T03270169  RH  039%=      5-min Rain = 0
KPD1 132004Z 06006KT 33/17 A3012 RMK A01 T03260169  RH  039%=      5-min Rain = 0
KPD1 132005Z 09007G12KT 33/17 A3012 RMK A01 T03260169  RH  039%=      5-min Rain = 0
KPD1 132006Z 08008KT 33/17 A3012 RMK A01 T03300169  RH  038%=      5-min Rain = 0
KPD1 132007Z 09009G14KT 33/17 A3012 RMK A01 T03310169  RH  038%=      5-min Rain = 0
KPD1 132008Z 09009KT 33/17 A3012 RMK A01 T03320169  RH  038%=      5-min Rain = 0
KPD1 132009Z 09007KT 33/17 A3012 RMK A01 T03330168  RH  037%=      5-min Rain = 0
KPD1 132010Z 11006KT 33/17 A3012 RMK A01 T03330169  RH  037%=      5-min Rain = 0
KPD1 132011Z 08004KT 34/17 A3012 RMK A01 T03370170  RH  037%=      5-min Rain = 0
KPD1 132012Z 06005KT 34/17 A3012 RMK A01 T03410171  RH  036%=      5-min Rain = 0
KPD1 132013Z 05005KT 34/17 A3012 RMK A01 T03430171  RH  036%=      5-min Rain = 0
KPD1 132014Z 05004KT 34/17 A3011 RMK A01 T03440171  RH  036%=      5-min Rain = 0
KPD1 132015Z 05005KT 35/17 A3011 RMK A01 T03450170  RH  036%=      5-min Rain = 0
KPD1 132016Z 04007KT 34/17 A3012 RMK A01 T03430170  RH  036%=      5-min Rain = 0
KPD1 132017Z 03009KT 34/17 A3011 RMK A01 T03420168  RH  036%=      5-min Rain = 0
KPD1 132018Z 06010G15KT 34/17 A3011 RMK A01 T03400168  RH  036%=      5-min Rain = 0
KPD1 132019Z 07008KT 34/17 A3011 RMK A01 T03400168  RH  036%=      5-min Rain = 0
KPD1 132020Z 08011KT 34/17 A3011 RMK A01 T03410169  RH  036%=      5-min Rain = 0
KPD1 132021Z 08009KT 34/17 A3012 RMK A01 T03420167  RH  035%=      5-min Rain = 0
KPD1 132022Z 08006KT 34/17 A3011 RMK A01 T03420166  RH  035%=      5-min Rain = 0
KPD1 132023Z 08006KT 34/17 A3011 RMK A01 T03420167  RH  035%=      5-min Rain = 0
KPD1 132024Z 09009KT 34/17 A3011 RMK A01 T03410166  RH  035%=      5-min Rain = 0
KPD1 132025Z 07004KT 34/16 A3011 RMK A01 T03420164  RH  035%=      5-min Rain = 0
KPD1 132026Z 07005KT 34/16 A3011 RMK A01 T03390163  RH  035%=      5-min Rain = 0
KPD1 132027Z 04006KT 34/16 A3011 RMK A01 T03360164  RH  036%=      5-min Rain = 0
KPD1 132028Z 05008KT 34/17 A3011 RMK A01 T03360165  RH  036%=      5-min Rain = 0
KPD1 132029Z 04008G13KT 34/16 A3011 RMK A01 T03390164  RH  035%=      5-min Rain = 0
KPD1 132030Z 07009KT 34/17 A3011 RMK A01 T03400165  RH  035%=      5-min Rain = 0
KPD1 132031Z 08009KT 34/16 A3011 RMK A01 T03420164  RH  035%=      5-min Rain = 0
KPD1 132032Z 07008KT 34/16 A3011 RMK A01 T03410163  RH  035%=      5-min Rain = 0
KPD1 132033Z 07004KT 34/16 A3011 RMK A01 T03370162  RH  035%=      5-min Rain = 0
KPD1 132034Z 05002KT 33/16 A3011 RMK A01 T03340164  RH  036%=      5-min Rain = 0
KPD1 132035Z 07003KT 34/17 A3011 RMK A01 T03360166  RH  036%=      5-min Rain = 0
KPD1 132036Z 06007KT 34/17 A3011 RMK A01 T03390169  RH  036%=      5-min Rain = 0
KPD1 132037Z 06008G13KT 34/17 A3011 RMK A01 T03430171  RH  036%=      5-min Rain = 0
KPD1 132038Z 06007KT 35/17 A3011 RMK A01 T03450169  RH  035%=      5-min Rain = 0
KPD1 132039Z 07007KT 34/17 A3011 RMK A01 T03430169  RH  036%=      5-min Rain = 0
KPD1 132040Z 09004KT 34/17 A3011 RMK A01 T03420169  RH  036%=      5-min Rain = 0
KPD1 132041Z 08002KT 35/17 A3011 RMK A01 T03450167  RH  035%=      5-min Rain = 0
KPD1 132042Z 06004KT 35/17 A3011 RMK A01 T03460168  RH  035%=      5-min Rain = 0
KPD1 132043Z 12003KT 35/17 A3011 RMK A01 T03460169  RH  035%=      5-min Rain = 0
KPD1 132044Z 09005G10KT 35/17 A3011 RMK A01 T03470168  RH  034%=      5-min Rain = 0
KPD1 132045Z 09007KT 35/17 A3011 RMK A01 T03480169  RH  035%=      5-min Rain = 0
KPD1 132046Z 11007KT 35/17 A3011 RMK A01 T03480167  RH  034%=      5-min Rain = 0
KPD1 132047Z 10005KT 35/17 A3011 RMK A01 T03500168  RH  034%=      5-min Rain = 0
KPD1 132048Z 07010KT 35/17 A3011 RMK A01 T03510168  RH  034%=      5-min Rain = 0
KPD1 132049Z 07010KT 35/17 A3011 RMK A01 T03480169  RH  035%=      5-min Rain = 0
KPD1 132050Z 04011KT 35/17 A3011 RMK A01 T03460167  RH  035%=      5-min Rain = 0
KPD1 132051Z 04010KT 34/16 A3011 RMK A01 T03400164  RH  035%=      5-min Rain = 0
KPD1 132052Z 07008KT 34/17 A3011 RMK A01 T03360165  RH  036%=      5-min Rain = 0
KPD1 132053Z 07005KT 34/17 A3011 RMK A01 T03350166  RH  036%=      5-min Rain = 0
KPD1 132054Z 06006KT 34/17 A3011 RMK A01 T03370167  RH  036%=      5-min Rain = 0
KPD1 132055Z 05005KT 34/17 A3011 RMK A01 T03380168  RH  036%=      5-min Rain = 0
KPD1 132056Z 07007KT 34/17 A3011 RMK A01 T03410169  RH  036%=      5-min Rain = 0
KPD1 132057Z 08006KT 34/17 A3011 RMK A01 T03440169  RH  035%=      5-min Rain = 0
KPD1 132058Z 05005G10KT 35/17 A3011 RMK A01 T03470168  RH  035%=      5-min Rain = 0
KPD1 132059Z 03007KT 35/17 A301 RMK A01 T03480166  RH  034%=      5-min Rain = 0
KPD1 132100Z 04006KT 35/17 A301 RMK A01 T03450165  RH  034%=      5-min Rain = 0
KPD1 132101Z 05006KT 34/17 A301 RMK A01 T03430165  RH  035%=      5-min Rain = 0
KPD1 132102Z 08008G13KT 34/16 A301 RMK A01 T03440164  RH  034%=      5-min Rain = 0
KPD1 132103Z 08010KT 34/16 A301 RMK A01 T03430162  RH  034%=      5-min Rain = 0
KPD1 132104Z 09008KT 34/16 A3011 RMK A01 T03420162  RH  034%=      5-min Rain = 0
KPD1 132105Z 08009KT 34/16 A3011 RMK A01 T03400161  RH  034%=      5-min Rain = 0
KPD1 132106Z 09010KT 34/16 A3011 RMK A01 T03370161  RH  035%=      5-min Rain = 0
KPD1 132107Z 12006KT 34/16 A3011 RMK A01 T03370160  RH  035%=      5-min Rain = 0
KPD1 132108Z 13005KT 34/16 A3011 RMK A01 T03390158  RH  034%=      5-min Rain = 0
KPD1 132109Z 13003KT 34/16 A301 RMK A01 T03410159  RH  034%=      5-min Rain = 0
KPD1 132110Z 13003KT 34/16 A301 RMK A01 T03400159  RH  034%=      5-min Rain = 0
KPD1 132111Z 14003KT 34/16 A301 RMK A01 T03380156  RH  034%=      5-min Rain = 0
KPD1 132112Z 12004KT 34/16 A301 RMK A01 T03350158  RH  035%=      5-min Rain = 0
KPD1 132113Z 12007KT 34/16 A301 RMK A01 T03350159  RH  035%=      5-min Rain = 0
KPD1 132114Z 09008KT 34/16 A301 RMK A01 T03380157  RH  034%=      5-min Rain = 0
KPD1 132115Z 07009G14KT 34/16 A301 RMK A01 T03390156  RH  034%=      5-min Rain = 0
KPD1 132116Z 07006KT 34/16 A301 RMK A01 T03370155  RH  034%=      5-min Rain = 0
KPD1 132117Z 12007KT 34/16 A301 RMK A01 T03370158  RH  034%=      5-min Rain = 0
KPD1 132118Z 11007KT 34/16 A301 RMK A01 T03420156  RH  033%=      5-min Rain = 0
KPD1 132119Z 11005KT 34/16 A301 RMK A01 T03440157  RH  033%=      5-min Rain = 0
KPD1 132120Z 10003KT 35/16 A301 RMK A01 T03450158  RH  033%=      5-min Rain = 0
KPD1 132121Z 08007KT 34/16 A301 RMK A01 T03440158  RH  033%=      5-min Rain = 0
KPD1 132122Z 06009KT 34/16 A301 RMK A01 T03430159  RH  034%=      5-min Rain = 0
KPD1 132123Z 07005KT 34/16 A301 RMK A01 T03410157  RH  033%=      5-min Rain = 0
KPD1 132124Z 06004KT 34/16 A301 RMK A01 T03400157  RH  033%=      5-min Rain = 0
KPD1 132125Z 07007KT 34/16 A301 RMK A01 T03390158  RH  034%=      5-min Rain = 0
KPD1 132126Z 10008KT 34/16 A301 RMK A01 T03390156  RH  033%=      5-min Rain = 0
KPD1 132127Z 11010KT 34/15 A301 RMK A01 T03410153  RH  032%=      5-min Rain = 0
KPD1 132128Z 11009KT 34/15 A301 RMK A01 T03400153  RH  032%=      5-min Rain = 0
KPD1 132129Z 10006KT 34/15 A301 RMK A01 T03390153  RH  033%=      5-min Rain = 0
KPD1 132130Z 13003KT 34/15 A301 RMK A01 T03390151  RH  032%=      5-min Rain = 0
KPD1 132131Z 09001KT 34/15 A301 RMK A01 T03390149  RH  032%=      5-min Rain = 0
KPD1 132132Z 12003KT 34/15 A301 RMK A01 T03410152  RH  032%=      5-min Rain = 0
KPD1 132133Z 08002KT 34/15 A301 RMK A01 T03430151  RH  032%=      5-min Rain = 0
KPD1 132134Z 08005KT 35/15 A301 RMK A01 T03450150  RH  031%=      5-min Rain = 0
KPD1 132135Z 07005KT 35/15 A301 RMK A01 T03450150  RH  031%=      5-min Rain = 0
KPD1 132136Z 09005KT 34/15 A3009 RMK A01 T03430154  RH  032%=      5-min Rain = 0
KPD1 132137Z 08008KT 34/16 A3009 RMK A01 T03440155  RH  032%=      5-min Rain = 0
KPD1 132138Z 10007G13KT 35/16 A3009 RMK A01 T03460158  RH  033%=      5-min Rain = 0
KPD1 132139Z 11009KT 35/16 A3009 RMK A01 T03480157  RH  032%=      5-min Rain = 0
KPD1 132140Z 10009KT 35/16 A3009 RMK A01 T03470156  RH  032%=      5-min Rain = 0
KPD1 132141Z 10006KT 34/16 A3009 RMK A01 T03440155  RH  032%=      5-min Rain = 0
KPD1 132142Z 12004KT 34/16 A3009 RMK A01 T03400156  RH  033%=      5-min Rain = 0
KPD1 132143Z 10004KT 34/16 A3009 RMK A01 T03390156  RH  033%=      5-min Rain = 0
KPD1 132144Z 08009KT 34/16 A3009 RMK A01 T03400155  RH  033%=      5-min Rain = 0
KPD1 132145Z 10008G14KT 34/16 A3009 RMK A01 T03410156  RH  033%=      5-min Rain = 0
KPD1 132146Z 10009G14KT 34/16 A3009 RMK A01 T03420157  RH  033%=      5-min Rain = 0
KPD1 132147Z 11007KT 34/16 A3009 RMK A01 T03440156  RH  033%=      5-min Rain = 0
KPD1 132148Z 11010KT 34/16 A3009 RMK A01 T03420157  RH  033%=      5-min Rain = 0
KPD1 132149Z 11005KT 34/16 A3009 RMK A01 T03430158  RH  033%=      5-min Rain = 0
KPD1 132150Z 12003G8KT 34/16 A3009 RMK A01 T03440158  RH  033%=      5-min Rain = 0
KPD1 132151Z 10005KT 35/16 A3009 RMK A01 T03470158  RH  032%=      5-min Rain = 0
KPD1 132152Z 09009G14KT 35/16 A3009 RMK A01 T03470155  RH  032%=      5-min Rain = 0
KPD1 132153Z 08007KT 34/15 A3009 RMK A01 T03440153  RH  032%=      5-min Rain = 0
KPD1 132154Z 08004KT 34/15 A3009 RMK A01 T03430152  RH  032%=      5-min Rain = 0
KPD1 132155Z 10005KT 34/15 A3009 RMK A01 T03420149  RH  031%=      5-min Rain = 0
KPD1 132156Z 10006G11KT 34/16 A3009 RMK A01 T03420155  RH  033%=      5-min Rain = 0
KPD1 132157Z 20001KT 34/16 A3009 RMK A01 T03410155  RH  033%=      5-min Rain = 0
KPD1 132158Z 12002KT 34/16 A3009 RMK A01 T03380155  RH  033%=      5-min Rain = 0
KPD1 132159Z 10006KT 34/16 A3009 RMK A01 T03380158  RH  034%=      5-min Rain = 0
KPD1 132200Z 09010KT 34/16 A3009 RMK A01 T03410160  RH  034%=      5-min Rain = 0
KPD1 132201Z 09008KT 34/16 A3009 RMK A01 T03430161  RH  034%=      5-min Rain = 0
KPD1 132202Z 10006KT 34/16 A3009 RMK A01 T03430159  RH  033%=      5-min Rain = 0
KPD1 132203Z 10009KT 34/16 A3009 RMK A01 T03440159  RH  033%=      5-min Rain = 0
KPD1 132204Z 10009KT 34/16 A3009 RMK A01 T03440156  RH  033%=      5-min Rain = 0
KPD1 132205Z 10006KT 34/15 A3009 RMK A01 T03420154  RH  033%=      5-min Rain = 0
KPD1 132206Z 11008KT 34/16 A3008 RMK A01 T03420156  RH  033%=      5-min Rain = 0
KPD1 132207Z 09009KT 34/16 A3009 RMK A01 T03410159  RH  034%=      5-min Rain = 0
KPD1 132208Z 09008KT 34/16 A3009 RMK A01 T03420160  RH  034%=      5-min Rain = 0
KPD1 132209Z 06009KT 34/16 A3009 RMK A01 T03410161  RH  034%=      5-min Rain = 0
KPD1 132210Z 07005KT 34/16 A3009 RMK A01 T03390159  RH  034%=      5-min Rain = 0
KPD1 132211Z 08009KT 34/16 A3009 RMK A01 T03360160  RH  035%=      5-min Rain = 0
KPD1 132212Z 09005G10KT 34/16 A3009 RMK A01 T03350160  RH  035%=      5-min Rain = 0
KPD1 132213Z 05008KT 34/16 A3008 RMK A01 T03360160  RH  035%=      5-min Rain = 0
KPD1 132214Z 06009KT 34/16 A3008 RMK A01 T03360158  RH  035%=      5-min Rain = 0
KPD1 132215Z 05007KT 33/16 A3008 RMK A01 T03340158  RH  035%=      5-min Rain = 0
KPD1 132216Z 05008KT 33/16 A3008 RMK A01 T03340159  RH  035%=      5-min Rain = 0
KPD1 132217Z 05006G11KT 33/16 A3008 RMK A01 T03340158  RH  035%=      5-min Rain = 0
KPD1 132218Z 05008KT 33/16 A3008 RMK A01 T03340157  RH  035%=      5-min Rain = 0
KPD1 132219Z 07006KT 33/16 A3008 RMK A01 T03340157  RH  035%=      5-min Rain = 0
KPD1 132220Z 10006KT 33/16 A3008 RMK A01 T03340157  RH  035%=      5-min Rain = 0
KPD1 132221Z 06006KT 33/16 A3008 RMK A01 T03340158  RH  035%=      5-min Rain = 0
KPD1 132222Z 05006G11KT 34/16 A3008 RMK A01 T03360159  RH  035%=      5-min Rain = 0
KPD1 132223Z 04007G12KT 34/16 A3008 RMK A01 T03380158  RH  034%=      5-min Rain = 0
KPD1 132224Z 06012KT 34/16 A3008 RMK A01 T03390159  RH  034%=      5-min Rain = 0
KPD1 132225Z 07007G14KT 34/16 A3008 RMK A01 T03360157  RH  034%=      5-min Rain = 0
KPD1 132226Z 05006KT 34/16 A3008 RMK A01 T03350158  RH  035%=      5-min Rain = 0
KPD1 132227Z 06006KT 34/16 A3008 RMK A01 T03350158  RH  035%=      5-min Rain = 0
KPD1 132228Z 06008KT 34/16 A3008 RMK A01 T03370156  RH  034%=      5-min Rain = 0
KPD1 132229Z 05006G12KT 34/16 A3008 RMK A01 T03380156  RH  034%=      5-min Rain = 0
KPD1 132230Z 06005G11KT 34/16 A3008 RMK A01 T03370156  RH  034%=      5-min Rain = 0
KPD1 132231Z 06005KT 34/16 A3008 RMK A01 T03400158  RH  034%=      5-min Rain = 0
KPD1 132232Z 08006KT 34/16 A3008 RMK A01 T03420157  RH  033%=      5-min Rain = 0
KPD1 132233Z 10006KT 34/16 A3008 RMK A01 T03440158  RH  033%=      5-min Rain = 0
KPD1 132234Z 10003KT 35/16 A3008 RMK A01 T03450156  RH  033%=      5-min Rain = 0
KPD1 132235Z 07007KT 34/16 A3008 RMK A01 T03430158  RH  033%=      5-min Rain = 0
KPD1 132236Z 04007KT 34/16 A3008 RMK A01 T03430157  RH  033%=      5-min Rain = 0
KPD1 132237Z 07008KT 34/16 A3008 RMK A01 T03400158  RH  034%=      5-min Rain = 0
KPD1 132238Z 07006KT 34/16 A3008 RMK A01 T03400158  RH  034%=      5-min Rain = 0
KPD1 132239Z 09009KT 34/16 A3008 RMK A01 T03390158  RH  034%=      5-min Rain = 0
KPD1 132240Z 09007KT 34/16 A3008 RMK A01 T03390157  RH  034%=      5-min Rain = 0
KPD1 132241Z 08008KT 34/16 A3008 RMK A01 T03390157  RH  034%=      5-min Rain = 0
KPD1 132242Z 08007KT 34/16 A3008 RMK A01 T03380156  RH  034%=      5-min Rain = 0
KPD1 132243Z 07005KT 34/16 A3009 RMK A01 T03380156  RH  034%=      5-min Rain = 0
KPD1 132244Z 09010KT 34/16 A3009 RMK A01 T03380155  RH  034%=      5-min Rain = 0
KPD1 132245Z 09008KT 34/16 A3009 RMK A01 T03360155  RH  034%=      5-min Rain = 0
KPD1 132246Z 08007KT 34/15 A3009 RMK A01 T03370154  RH  033%=      5-min Rain = 0
KPD1 132247Z 07004KT 34/15 A3009 RMK A01 T03380154  RH  033%=      5-min Rain = 0
KPD1 132248Z 08004KT 34/15 A3009 RMK A01 T03360154  RH  034%=      5-min Rain = 0
KPD1 132249Z 11008KT 34/16 A3009 RMK A01 T03360155  RH  034%=      5-min Rain = 0
KPD1 132250Z 13008KT 34/16 A3009 RMK A01 T03380155  RH  033%=      5-min Rain = 0
KPD1 132251Z 09007KT 34/15 A3009 RMK A01 T03380154  RH  033%=      5-min Rain = 0
KPD1 132252Z 08008KT 34/16 A3009 RMK A01 T03370155  RH  034%=      5-min Rain = 0
KPD1 132253Z 07005KT 34/15 A3009 RMK A01 T03370153  RH  033%=      5-min Rain = 0
KPD1 132254Z 09004KT 34/15 A3009 RMK A01 T03360154  RH  034%=      5-min Rain = 0
KPD1 132255Z 10007KT 34/16 A3009 RMK A01 T03360155  RH  034%=      5-min Rain = 0
KPD1 132256Z 09007KT 34/15 A3009 RMK A01 T03370154  RH  033%=      5-min Rain = 0
KPD1 132257Z 08008KT 34/15 A3009 RMK A01 T03360154  RH  034%=      5-min Rain = 0
KPD1 132258Z 08007KT 34/16 A3009 RMK A01 T03370155  RH  034%=      5-min Rain = 0
KPD1 132259Z 09007G12KT 34/16 A3009 RMK A01 T03370155  RH  033%=      5-min Rain = 0
KPD1 132300Z 09006G11KT 34/15 A3009 RMK A01 T03380154  RH  033%=      5-min Rain = 0
KPD1 132301Z 11009KT 34/16 A3009 RMK A01 T03380155  RH  033%=      5-min Rain = 0
KPD1 132302Z 09006KT 34/16 A3009 RMK A01 T03380155  RH  033%=      5-min Rain = 0
KPD1 132303Z 09009KT 34/15 A3009 RMK A01 T03370154  RH  033%=      5-min Rain = 0
KPD1 132304Z 08008KT 34/15 A3009 RMK A01 T03370154  RH  033%=      5-min Rain = 0
KPD1 132305Z 08008KT 34/15 A3009 RMK A01 T03380154  RH  033%=      5-min Rain = 0
KPD1 132306Z 07007KT 34/16 A3009 RMK A01 T03370156  RH  034%=      5-min Rain = 0
KPD1 132307Z 07007KT 34/16 A3009 RMK A01 T03360156  RH  034%=      5-min Rain = 0
KPD1 132308Z 08008KT 34/16 A3009 RMK A01 T03350157  RH  034%=      5-min Rain = 0
KPD1 132309Z 08007KT 33/16 A3009 RMK A01 T03340157  RH  035%=      5-min Rain = 0
KPD1 132310Z 05007KT 33/16 A3009 RMK A01 T03330158  RH  035%=      5-min Rain = 0
KPD1 132311Z 07007KT 33/16 A3009 RMK A01 T03310156  RH  035%=      5-min Rain = 0
KPD1 132312Z 08006KT 33/16 A3009 RMK A01 T03310157  RH  035%=      5-min Rain = 0
KPD1 132313Z 08008KT 33/16 A3009 RMK A01 T03320157  RH  035%=      5-min Rain = 0
KPD1 132314Z 09009KT 33/16 A3009 RMK A01 T03340156  RH  034%=      5-min Rain = 0
KPD1 132315Z 09006KT 33/16 A3009 RMK A01 T03340155  RH  034%=      5-min Rain = 0
KPD1 132316Z 07009KT 33/16 A3009 RMK A01 T03330155  RH  034%=      5-min Rain = 0
KPD1 132317Z 11005KT 33/16 A3009 RMK A01 T03320155  RH  034%=      5-min Rain = 0
KPD1 132318Z 12005KT 33/16 A3009 RMK A01 T03330155  RH  034%=      5-min Rain = 0
KPD1 132319Z 13005KT 33/16 A3009 RMK A01 T03340157  RH  035%=      5-min Rain = 0
KPD1 132320Z 11006KT 34/16 A3009 RMK A01 T03360158  RH  034%=      5-min Rain = 0
KPD1 132321Z 10007KT 34/16 A3009 RMK A01 T03360157  RH  034%=      5-min Rain = 0
KPD1 132322Z 11009G14KT 34/16 A3009 RMK A01 T03360156  RH  034%=      5-min Rain = 0
KPD1 132323Z 09010KT 33/15 A3009 RMK A01 T03330153  RH  034%=      5-min Rain = 0
KPD1 132324Z 08008G13KT 33/15 A3009 RMK A01 T03310154  RH  035%=      5-min Rain = 0
KPD1 132325Z 08009KT 33/15 A3009 RMK A01 T03310153  RH  034%=      5-min Rain = 0
KPD1 132326Z 08007KT 33/15 A3009 RMK A01 T03310153  RH  034%=      5-min Rain = 0
KPD1 132327Z 07007KT 33/15 A3009 RMK A01 T03300153  RH  035%=      5-min Rain = 0
KPD1 132328Z 07007KT 33/15 A3009 RMK A01 T03300154  RH  035%=      5-min Rain = 0
KPD1 132329Z 06004KT 33/15 A3009 RMK A01 T03290153  RH  035%=      5-min Rain = 0
KPD1 132330Z 05004KT 33/15 A3009 RMK A01 T03280154  RH  035%=      5-min Rain = 0
KPD1 132331Z 07005KT 33/15 A3009 RMK A01 T03290154  RH  035%=      5-min Rain = 0
KPD1 132332Z 07005KT 33/15 A3009 RMK A01 T03300154  RH  035%=      5-min Rain = 0
KPD1 132333Z 09005KT 33/15 A3009 RMK A01 T03310154  RH  034%=      5-min Rain = 0
KPD1 132334Z 12004KT 33/15 A3009 RMK A01 T03320150  RH  033%=      5-min Rain = 0
KPD1 132335Z 12005KT 33/15 A3009 RMK A01 T03330149  RH  033%=      5-min Rain = 0
KPD1 132336Z 12004KT 33/15 A3009 RMK A01 T03330147  RH  033%=      5-min Rain = 0
KPD1 132337Z 12005KT 33/15 A3009 RMK A01 T03320148  RH  033%=      5-min Rain = 0
KPD1 132338Z 10007KT 33/15 A3009 RMK A01 T03320148  RH  033%=      5-min Rain = 0
KPD1 132339Z 11008KT 33/15 A3009 RMK A01 T03320150  RH  033%=      5-min Rain = 0
KPD1 132340Z 09008KT 33/15 A3009 RMK A01 T03320152  RH  034%=      5-min Rain = 0
KPD1 132341Z 08007KT 33/15 A3009 RMK A01 T03310154  RH  035%=      5-min Rain = 0
KPD1 132342Z 05005KT 33/16 A3009 RMK A01 T03310156  RH  035%=      5-min Rain = 0
KPD1 132343Z 06005KT 33/16 A3009 RMK A01 T03300155  RH  035%=      5-min Rain = 0
KPD1 132344Z 06007KT 33/16 A3009 RMK A01 T03290155  RH  035%=      5-min Rain = 0
KPD1 132345Z 10006KT 33/16 A3009 RMK A01 T03280155  RH  035%=      5-min Rain = 0
KPD1 132346Z 09008G14KT 33/16 A3009 RMK A01 T03270155  RH  036%=      5-min Rain = 0
KPD1 132347Z 09008KT 33/15 A3009 RMK A01 T03270154  RH  035%=      5-min Rain = 0
KPD1 132348Z 09009KT 33/16 A3009 RMK A01 T03270155  RH  036%=      5-min Rain = 0
KPD1 132349Z 11007KT 33/15 A3009 RMK A01 T03260154  RH  036%=      5-min Rain = 0
KPD1 132350Z 10005KT 33/15 A3009 RMK A01 T03260153  RH  035%=      5-min Rain = 0
KPD1 132351Z 09005KT 33/15 A3009 RMK A01 T03250153  RH  036%=      5-min Rain = 0
KPD1 132352Z 09005KT 32/15 A3009 RMK A01 T03240154  RH  036%=      5-min Rain = 0
KPD1 132353Z 11007KT 32/16 A3009 RMK A01 T03240155  RH  036%=      5-min Rain = 0
KPD1 132354Z 11005KT 32/15 A3009 RMK A01 T03240154  RH  036%=      5-min Rain = 0
KPD1 132355Z 10006KT 32/15 A3009 RMK A01 T03240154  RH  036%=      5-min Rain = 0
KPD1 132356Z 08007KT 32/16 A3009 RMK A01 T03240155  RH  036%=      5-min Rain = 0
KPD1 132357Z 09006KT 33/16 A3009 RMK A01 T03260155  RH  036%=      5-min Rain = 0
KPD1 132358Z 10008KT 33/15 A3009 RMK A01 T03260154  RH  036%=      5-min Rain = 0
KPD1 132359Z 11006KT 33/15 A3009 RMK A01 T03250154  RH  036%=      5-min Rain = 0
KPD1 140000Z 10003KT 33/16 A3009 RMK A01 T03250155  RH  036%=      5-min Rain = 0
KPD1 140001Z 05006KT 33/16 A3009 RMK A01 T03250155  RH  036%=      5-min Rain = 0
KPD1 140002Z 06006KT 33/16 A3009 RMK A01 T03250155  RH  036%=      5-min Rain = 0
KPD1 140003Z 05007KT 32/16 A3009 RMK A01 T03240155  RH  036%=      5-min Rain = 0
KPD1 140004Z 08005KT 32/16 A3009 RMK A01 T03230155  RH  036%=      5-min Rain = 0
KPD1 140005Z 07003KT 32/16 A3009 RMK A01 T03230155  RH  036%=      5-min Rain = 0
KPD1 140006Z 09005KT 32/16 A3009 RMK A01 T03240156  RH  036%=      5-min Rain = 0
KPD1 140007Z 06003KT 33/16 A3009 RMK A01 T03250156  RH  036%=      5-min Rain = 0
KPD1 140008Z 09005KT 33/16 A3009 RMK A01 T03260155  RH  036%=      5-min Rain = 0
KPD1 140009Z 10003KT 33/16 A3009 RMK A01 T03260156  RH  036%=      5-min Rain = 0
KPD1 140010Z 10005KT 33/16 A3009 RMK A01 T03270156  RH  036%=      5-min Rain = 0
KPD1 140011Z 11003KT 33/16 A3009 RMK A01 T03270156  RH  036%=      5-min Rain = 0
KPD1 140012Z 10006KT 33/16 A3009 RMK A01 T03270156  RH  036%=      5-min Rain = 0
KPD1 140013Z 11009KT 33/16 A3009 RMK A01 T03270155  RH  036%=      5-min Rain = 0
KPD1 140014Z 10008KT 33/15 A3009 RMK A01 T03250153  RH  036%=      5-min Rain = 0
KPD1 140015Z 11005KT 32/15 A3009 RMK A01 T03230153  RH  036%=      5-min Rain = 0
KPD1 140016Z 10006KT 32/15 A3009 RMK A01 T03220153  RH  036%=      5-min Rain = 0
KPD1 140017Z 09006KT 32/15 A3009 RMK A01 T03220154  RH  036%=      5-min Rain = 0
KPD1 140018Z 11005KT 32/15 A3009 RMK A01 T03220154  RH  036%=      5-min Rain = 0
KPD1 140019Z 09006KT 32/15 A3009 RMK A01 T03220154  RH  036%=      5-min Rain = 0
KPD1 140020Z 10004KT 32/15 A3009 RMK A01 T03220154  RH  036%=      5-min Rain = 0
KPD1 140021Z 09007G12KT 32/16 A3009 RMK A01 T03220155  RH  036%=      5-min Rain = 0
KPD1 140022Z 08006KT 32/16 A3009 RMK A01 T03220157  RH  037%=      5-min Rain = 0
KPD1 140023Z 09006KT 32/16 A3009 RMK A01 T03210158  RH  038%=      5-min Rain = 0
KPD1 140024Z 10006KT 32/16 A3009 RMK A01 T03200158  RH  038%=      5-min Rain = 0
KPD1 140025Z 10007KT 32/16 A3009 RMK A01 T03200157  RH  037%=      5-min Rain = 0
KPD1 140026Z 09007KT 32/16 A3009 RMK A01 T03190156  RH  037%=      5-min Rain = 0
KPD1 140027Z 11005KT 32/16 A3009 RMK A01 T03190156  RH  037%=      5-min Rain = 0
KPD1 140028Z 10006KT 32/16 A3009 RMK A01 T03190157  RH  038%=      5-min Rain = 0
KPD1 140029Z 10006KT 32/16 A3009 RMK A01 T03190157  RH  038%=      5-min Rain = 0
KPD1 140030Z 09006KT 32/16 A3009 RMK A01 T03190158  RH  038%=      5-min Rain = 0
KPD1 140031Z 08007KT 32/16 A3009 RMK A01 T03190160  RH  038%=      5-min Rain = 0
KPD1 140032Z 08008KT 32/16 A3009 RMK A01 T03190161  RH  039%=      5-min Rain = 0
KPD1 140033Z 09007KT 32/16 A3009 RMK A01 T03180161  RH  039%=      5-min Rain = 0
KPD1 140034Z 07009KT 32/16 A3009 RMK A01 T03170161  RH  039%=      5-min Rain = 0
KPD1 140035Z 07007KT 32/16 A3009 RMK A01 T03160162  RH  040%=      5-min Rain = 0
KPD1 140036Z 08008KT 31/16 A3009 RMK A01 T03140162  RH  040%=      5-min Rain = 0
KPD1 140037Z 09006KT 31/16 A3009 RMK A01 T03140162  RH  040%=      5-min Rain = 0
KPD1 140038Z 09006KT 31/16 A3009 RMK A01 T03140163  RH  040%=      5-min Rain = 0
KPD1 140039Z 07007KT 31/16 A3009 RMK A01 T03140163  RH  040%=      5-min Rain = 0
KPD1 140040Z 07006KT 31/16 A3009 RMK A01 T03130163  RH  040%=      5-min Rain = 0
KPD1 140041Z 06006KT 31/16 A3009 RMK A01 T03130163  RH  040%=      5-min Rain = 0
KPD1 140042Z 07007KT 31/16 A3009 RMK A01 T03130163  RH  040%=      5-min Rain = 0
KPD1 140043Z 09007KT 31/16 A3009 RMK A01 T03130163  RH  040%=      5-min Rain = 0
KPD1 140044Z 08007KT 31/16 A3009 RMK A01 T03130163  RH  041%=      5-min Rain = 0
KPD1 140045Z 09007G12KT 31/16 A3009 RMK A01 T03130163  RH  041%=      5-min Rain = 0
KPD1 140046Z 08008KT 31/16 A3009 RMK A01 T03130163  RH  041%=      5-min Rain = 0
KPD1 140047Z 08007KT 31/16 A301 RMK A01 T03120164  RH  041%=      5-min Rain = 0
KPD1 140048Z 09006G11KT 31/16 A301 RMK A01 T03120164  RH  041%=      5-min Rain = 0
KPD1 140049Z 08009KT 31/16 A301 RMK A01 T03120164  RH  041%=      5-min Rain = 0
KPD1 140050Z 08008KT 31/16 A301 RMK A01 T03110164  RH  041%=      5-min Rain = 0
KPD1 140051Z 07005KT 31/16 A301 RMK A01 T03110164  RH  041%=      5-min Rain = 0
KPD1 140052Z 08008KT 31/16 A301 RMK A01 T03110164  RH  041%=      5-min Rain = 0
KPD1 140053Z 08008KT 31/16 A301 RMK A01 T03100164  RH  041%=      5-min Rain = 0
KPD1 140054Z 10006KT 31/16 A301 RMK A01 T03100163  RH  041%=      5-min Rain = 0
KPD1 140055Z 09006KT 31/16 A301 RMK A01 T03100164  RH  041%=      5-min Rain = 0
KPD1 140056Z 08008KT 31/16 A301 RMK A01 T03100164  RH  041%=      5-min Rain = 0
KPD1 140057Z 09008KT 31/16 A301 RMK A01 T03090163  RH  042%=      5-min Rain = 0
KPD1 140058Z 10007KT 31/16 A301 RMK A01 T03080164  RH  042%=      5-min Rain = 0
KPD1 140059Z 09005KT 31/16 A301 RMK A01 T03070164  RH  042%=      5-min Rain = 0
KPD1 140100Z 08008KT 31/16 A301 RMK A01 T03060164  RH  042%=      5-min Rain = 0
KPD1 140101Z 08008G13KT 31/16 A301 RMK A01 T03060163  RH  042%=      5-min Rain = 0
KPD1 140102Z 09009KT 31/16 A301 RMK A01 T03050163  RH  042%=      5-min Rain = 0
KPD1 140103Z 09007G12KT 30/16 A301 RMK A01 T03040163  RH  043%=      5-min Rain = 0
KPD1 140104Z 08009KT 30/16 A301 RMK A01 T03040164  RH  043%=      5-min Rain = 0
KPD1 140105Z 09008KT 30/16 A301 RMK A01 T03040164  RH  043%=      5-min Rain = 0
KPD1 140106Z 08009KT 30/16 A301 RMK A01 T03030163  RH  043%=      5-min Rain = 0
KPD1 140107Z 08007KT 30/16 A301 RMK A01 T03020164  RH  043%=      5-min Rain = 0
KPD1 140108Z 07008KT 30/16 A301 RMK A01 T03020164  RH  044%=      5-min Rain = 0
KPD1 140109Z 07010KT 30/17 A301 RMK A01 T03010165  RH  044%=      5-min Rain = 0
KPD1 140110Z 08006KT 30/17 A301 RMK A01 T03010165  RH  044%=      5-min Rain = 0
KPD1 140111Z 08007KT 30/17 A301 RMK A01 T03010165  RH  044%=      5-min Rain = 0
KPD1 140112Z 11006KT 30/17 A301 RMK A01 T03010166  RH  044%=      5-min Rain = 0
KPD1 140113Z 11006KT 30/17 A301 RMK A01 T03010167  RH  045%=      5-min Rain = 0
KPD1 140114Z 10005KT 30/17 A301 RMK A01 T03000167  RH  045%=      5-min Rain = 0
KPD1 140115Z 12007KT 30/17 A301 RMK A01 T02990167  RH  045%=      5-min Rain = 0
KPD1 140116Z 10008KT 30/17 A3011 RMK A01 T02990169  RH  045%=      5-min Rain = 0
KPD1 140117Z 11005KT 30/17 A3011 RMK A01 T02990170  RH  046%=      5-min Rain = 0
KPD1 140118Z 10004KT 30/17 A3011 RMK A01 T02990171  RH  046%=      5-min Rain = 0
KPD1 140119Z 11005KT 30/17 A3011 RMK A01 T02990171  RH  046%=      5-min Rain = 0
KPD1 140120Z 10004KT 30/17 A3011 RMK A01 T02980171  RH  046%=      5-min Rain = 0
KPD1 140121Z 10004KT 30/17 A3011 RMK A01 T02970171  RH  047%=      5-min Rain = 0
KPD1 140122Z 11004KT 30/17 A3011 RMK A01 T02960171  RH  047%=      5-min Rain = 0
KPD1 140123Z 13004KT 30/17 A3011 RMK A01 T02960171  RH  047%=      5-min Rain = 0
KPD1 140124Z 13004KT 30/17 A3011 RMK A01 T02950172  RH  047%=      5-min Rain = 0
KPD1 140125Z 12008KT 30/17 A3011 RMK A01 T02950172  RH  048%=      5-min Rain = 0
KPD1 140126Z 12004KT 29/17 A3011 RMK A01 T02940172  RH  048%=      5-min Rain = 0
KPD1 140127Z 13005KT 29/17 A3011 RMK A01 T02940172  RH  048%=      5-min Rain = 0
KPD1 140128Z 12004KT 29/17 A3011 RMK A01 T02940173  RH  048%=      5-min Rain = 0
KPD1 140129Z 11004KT 29/17 A3011 RMK A01 T02940173  RH  048%=      5-min Rain = 0
KPD1 140130Z 11005KT 29/17 A3011 RMK A01 T02930173  RH  048%=      5-min Rain = 0
KPD1 140131Z 12008KT 29/17 A3011 RMK A01 T02930173  RH  048%=      5-min Rain = 0
KPD1 140132Z 11007KT 29/17 A3011 RMK A01 T02920173  RH  049%=      5-min Rain = 0
KPD1 140133Z 11008KT 29/17 A3011 RMK A01 T02920173  RH  049%=      5-min Rain = 0
KPD1 140134Z 12007KT 29/17 A3011 RMK A01 T02920173  RH  049%=      5-min Rain = 0
KPD1 140135Z 12006KT 29/17 A3011 RMK A01 T02910173  RH  049%=      5-min Rain = 0
KPD1 140136Z 11006KT 29/17 A3011 RMK A01 T02910173  RH  049%=      5-min Rain = 0
KPD1 140137Z 12004KT 29/17 A3011 RMK A01 T02910173  RH  049%=      5-min Rain = 0
KPD1 140138Z 12005KT 29/17 A3011 RMK A01 T02910173  RH  049%=      5-min Rain = 0
KPD1 140139Z 11004KT 29/17 A3011 RMK A01 T02910174  RH  049%=      5-min Rain = 0
KPD1 140140Z 13003KT 29/17 A3012 RMK A01 T02900174  RH  049%=      5-min Rain = 0
KPD1 140141Z 13006KT 29/17 A3012 RMK A01 T02900174  RH  049%=      5-min Rain = 0
KPD1 140142Z 11005KT 29/17 A3012 RMK A01 T02890174  RH  050%=      5-min Rain = 0
KPD1 140143Z 14004KT 29/17 A3012 RMK A01 T02890174  RH  050%=      5-min Rain = 0
KPD1 140144Z 11006KT 29/17 A3012 RMK A01 T02880174  RH  050%=      5-min Rain = 0
KPD1 140145Z 11007KT 29/17 A3012 RMK A01 T02880174  RH  050%=      5-min Rain = 0
KPD1 140146Z 11006KT 29/17 A3012 RMK A01 T02870174  RH  050%=      5-min Rain = 0
KPD1 140147Z 10007KT 29/17 A3012 RMK A01 T02870174  RH  051%=      5-min Rain = 0
KPD1 140148Z 13004KT 29/17 A3012 RMK A01 T02870174  RH  051%=      5-min Rain = 0
KPD1 140149Z 10007G13KT 29/17 A3012 RMK A01 T02860174  RH  051%=      5-min Rain = 0
KPD1 140150Z 11005G10KT 29/17 A3012 RMK A01 T02860174  RH  051%=      5-min Rain = 0
KPD1 140151Z 11006KT 29/17 A3012 RMK A01 T02860174  RH  051%=      5-min Rain = 0
KPD1 140152Z 14004KT 29/17 A3012 RMK A01 T02860174  RH  051%=      5-min Rain = 0
KPD1 140153Z 13003KT 29/17 A3012 RMK A01 T02860174  RH  051%=      5-min Rain = 0
KPD1 140154Z 08003KT 29/17 A3012 RMK A01 T02850174  RH  051%=      5-min Rain = 0
KPD1 140155Z 13004KT 29/17 A3013 RMK A01 T02850174  RH  051%=      5-min Rain = 0
KPD1 140156Z 10005KT 28/17 A3013 RMK A01 T02840174  RH  051%=      5-min Rain = 0
KPD1 140157Z 12003KT 28/18 A3013 RMK A01 T02840175  RH  052%=      5-min Rain = 0
KPD1 140158Z 13004KT 28/18 A3013 RMK A01 T02840175  RH  052%=      5-min Rain = 0
KPD1 140159Z 11007KT 28/18 A3013 RMK A01 T02840175  RH  052%=      5-min Rain = 0
KPD1 140200Z 12005KT 28/18 A3013 RMK A01 T02840175  RH  052%=      5-min Rain = 0
KPD1 140201Z 11007KT 28/17 A3013 RMK A01 T02840174  RH  052%=      5-min Rain = 0
KPD1 140202Z 12007KT 28/17 A3013 RMK A01 T02840174  RH  052%=      5-min Rain = 0
KPD1 140203Z 11006KT 28/18 A3013 RMK A01 T02840175  RH  052%=      5-min Rain = 0
KPD1 140204Z 10006KT 28/18 A3013 RMK A01 T02840175  RH  052%=      5-min Rain = 0
KPD1 140205Z 11006KT 28/18 A3013 RMK A01 T02830175  RH  052%=      5-min Rain = 0
KPD1 140206Z 10005KT 28/18 A3013 RMK A01 T02830175  RH  052%=      5-min Rain = 0
KPD1 140207Z 11006KT 28/18 A3013 RMK A01 T02820175  RH  052%=      5-min Rain = 0
KPD1 140208Z 09007KT 28/18 A3013 RMK A01 T02820175  RH  052%=      5-min Rain = 0
KPD1 140209Z 11006KT 28/18 A3014 RMK A01 T02820175  RH  052%=      5-min Rain = 0
KPD1 140210Z 09005KT 28/18 A3014 RMK A01 T02820175  RH  052%=      5-min Rain = 0
KPD1 140211Z 11005KT 28/18 A3014 RMK A01 T02810175  RH  053%=      5-min Rain = 0
KPD1 140212Z 10007KT 28/18 A3014 RMK A01 T02810176  RH  053%=      5-min Rain = 0
KPD1 140213Z 08004KT 28/18 A3014 RMK A01 T02790175  RH  053%=      5-min Rain = 0
KPD1 140214Z 09004KT 28/18 A3014 RMK A01 T02790175  RH  053%=      5-min Rain = 0
KPD1 140215Z 10005KT 28/18 A3014 RMK A01 T02780175  RH  054%=      5-min Rain = 0
KPD1 140216Z 10007KT 28/18 A3014 RMK A01 T02770175  RH  054%=      5-min Rain = 0
KPD1 140217Z 11006KT 28/18 A3014 RMK A01 T02770176  RH  054%=      5-min Rain = 0
KPD1 140218Z 11002KT 28/18 A3014 RMK A01 T02770176  RH  054%=      5-min Rain = 0
KPD1 140219Z 11005KT 28/18 A3014 RMK A01 T02770175  RH  054%=      5-min Rain = 0
KPD1 140220Z 11004KT 28/18 A3014 RMK A01 T02770176  RH  054%=      5-min Rain = 0
KPD1 140221Z 10006KT 28/18 A3014 RMK A01 T02760176  RH  054%=      5-min Rain = 0
KPD1 140222Z 11005KT 28/18 A3014 RMK A01 T02760176  RH  054%=      5-min Rain = 0
KPD1 140223Z 10007KT 28/18 A3014 RMK A01 T02760176  RH  055%=      5-min Rain = 0
KPD1 140224Z 11005KT 28/18 A3015 RMK A01 T02760176  RH  055%=      5-min Rain = 0
KPD1 140225Z 11006KT 28/18 A3015 RMK A01 T02750176  RH  055%=      5-min Rain = 0
KPD1 140226Z 10007KT 28/18 A3015 RMK A01 T02750176  RH  055%=      5-min Rain = 0
KPD1 140227Z 11005KT 28/18 A3015 RMK A01 T02760176  RH  055%=      5-min Rain = 0
KPD1 140228Z 12004KT 28/18 A3015 RMK A01 T02750176  RH  055%=      5-min Rain = 0
KPD1 140229Z 11006KT 28/18 A3015 RMK A01 T02750176  RH  055%=      5-min Rain = 0
KPD1 140230Z 10005KT 27/18 A3015 RMK A01 T02740176  RH  055%=      5-min Rain = 0
KPD1 140231Z 10005KT 27/18 A3015 RMK A01 T02740176  RH  055%=      5-min Rain = 0
KPD1 140232Z 10005KT 27/18 A3015 RMK A01 T02730175  RH  055%=      5-min Rain = 0
KPD1 140233Z 11006KT 27/18 A3015 RMK A01 T02730175  RH  055%=      5-min Rain = 0
KPD1 140234Z 09004KT 27/18 A3015 RMK A01 T02730175  RH  055%=      5-min Rain = 0
KPD1 140235Z 10006KT 27/18 A3015 RMK A01 T02720175  RH  055%=      5-min Rain = 0
KPD1 140236Z 11005KT 27/18 A3015 RMK A01 T02720175  RH  055%=      5-min Rain = 0
KPD1 140237Z 10006KT 27/18 A3015 RMK A01 T02720175  RH  055%=      5-min Rain = 0
KPD1 140238Z 11005KT 27/18 A3015 RMK A01 T02710175  RH  056%=      5-min Rain = 0
KPD1 140239Z 10004KT 27/18 A3015 RMK A01 T02710175  RH  056%=      5-min Rain = 0
KPD1 140240Z 10004KT 27/18 A3016 RMK A01 T02700175  RH  056%=      5-min Rain = 0
KPD1 140241Z 10002KT 27/18 A3016 RMK A01 T02700175  RH  056%=      5-min Rain = 0
KPD1 140242Z 11004KT 27/18 A3016 RMK A01 T02700175  RH  056%=      5-min Rain = 0
KPD1 140243Z 10004KT 27/17 A3016 RMK A01 T02690174  RH  056%=      5-min Rain = 0
KPD1 140244Z 10004KT 27/17 A3016 RMK A01 T02680174  RH  056%=      5-min Rain = 0
KPD1 140245Z 09003KT 27/17 A3016 RMK A01 T02680174  RH  056%=      5-min Rain = 0
KPD1 140246Z 09003KT 27/17 A3016 RMK A01 T02680174  RH  056%=      5-min Rain = 0
KPD1 140247Z 10005KT 27/17 A3016 RMK A01 T02670174  RH  057%=      5-min Rain = 0
KPD1 140248Z 11005KT 27/17 A3016 RMK A01 T02670174  RH  057%=      5-min Rain = 0
KPD1 140249Z 10005KT 27/18 A3016 RMK A01 T02680175  RH  057%=      5-min Rain = 0
KPD1 140250Z 10003KT 27/18 A3016 RMK A01 T02670175  RH  057%=      5-min Rain = 0
KPD1 140251Z 10005KT 27/18 A3016 RMK A01 T02670175  RH  057%=      5-min Rain = 0
KPD1 140252Z 11006KT 27/18 A3016 RMK A01 T02670175  RH  057%=      5-min Rain = 0
KPD1 140253Z 12005KT 27/18 A3016 RMK A01 T02670176  RH  057%=      5-min Rain = 0
KPD1 140254Z 10004KT 27/18 A3016 RMK A01 T02670176  RH  057%=      5-min Rain = 0
KPD1 140255Z 09004KT 27/18 A3016 RMK A01 T02670176  RH  057%=      5-min Rain = 0
KPD1 140256Z 10005KT 27/18 A3016 RMK A01 T02670175  RH  057%=      5-min Rain = 0
KPD1 140257Z 10004KT 27/18 A3016 RMK A01 T02680176  RH  057%=      5-min Rain = 0
KPD1 140258Z 10006KT 27/18 A3016 RMK A01 T02680176  RH  057%=      5-min Rain = 0
KPD1 140259Z 11005KT 27/18 A3016 RMK A01 T02670176  RH  057%=      5-min Rain = 0
KPD1 140300Z 11006KT 27/18 A3016 RMK A01 T02670176  RH  057%=      5-min Rain = 0
KPD1 140301Z 11006KT 27/18 A3016 RMK A01 T02670176  RH  057%=      5-min Rain = 0
KPD1 140302Z 12005KT 27/18 A3016 RMK A01 T02660176  RH  058%=      5-min Rain = 0
KPD1 140303Z 12006KT 27/18 A3016 RMK A01 T02660176  RH  058%=      5-min Rain = 0
KPD1 140304Z 12003KT 27/18 A3016 RMK A01 T02660176  RH  058%=      5-min Rain = 0
KPD1 140305Z 11007KT 27/18 A3016 RMK A01 T02660176  RH  058%=      5-min Rain = 0
KPD1 140306Z 12006KT 27/18 A3016 RMK A01 T02650176  RH  058%=      5-min Rain = 0
KPD1 140307Z 11007KT 27/18 A3016 RMK A01 T02650176  RH  058%=      5-min Rain = 0
KPD1 140308Z 12006G12KT 27/18 A3016 RMK A01 T02660175  RH  058%=      5-min Rain = 0
KPD1 140309Z 11005KT 27/18 A3016 RMK A01 T02650175  RH  058%=      5-min Rain = 0
KPD1 140310Z 13004KT 27/18 A3016 RMK A01 T02660175  RH  058%=      5-min Rain = 0
KPD1 140311Z 12004KT 27/18 A3016 RMK A01 T02660175  RH  058%=      5-min Rain = 0
KPD1 140312Z 11007KT 27/18 A3016 RMK A01 T02650175  RH  058%=      5-min Rain = 0
KPD1 140313Z 12008KT 27/18 A3016 RMK A01 T02660175  RH  058%=      5-min Rain = 0
KPD1 140314Z 12004KT 27/18 A3016 RMK A01 T02660175  RH  057%=      5-min Rain = 0
KPD1 140315Z 12003KT 27/18 A3016 RMK A01 T02660175  RH  057%=      5-min Rain = 0
KPD1 140316Z 12003KT 27/18 A3016 RMK A01 T02660175  RH  057%=      5-min Rain = 0
KPD1 140317Z 11007KT 27/18 A3016 RMK A01 T02660176  RH  058%=      5-min Rain = 0
KPD1 140318Z 11005KT 27/18 A3016 RMK A01 T02660175  RH  058%=      5-min Rain = 0
KPD1 140319Z 11008KT 27/18 A3016 RMK A01 T02650175  RH  057%=      5-min Rain = 0
KPD1 140320Z 11006KT 27/18 A3017 RMK A01 T02650175  RH  057%=      5-min Rain = 0
KPD1 140321Z 11005KT 27/18 A3017 RMK A01 T02650175  RH  057%=      5-min Rain = 0
KPD1 140322Z 11006KT 27/18 A3017 RMK A01 T02660175  RH  058%=      5-min Rain = 0
KPD1 140323Z 11004KT 27/18 A3017 RMK A01 T02650175  RH  058%=      5-min Rain = 0
KPD1 140324Z 12005KT 27/18 A3017 RMK A01 T02660175  RH  058%=      5-min Rain = 0
KPD1 140325Z 12005KT 27/18 A3017 RMK A01 T02650175  RH  058%=      5-min Rain = 0
KPD1 140326Z 09005KT 27/18 A3017 RMK A01 T02650175  RH  058%=      5-min Rain = 0
KPD1 140327Z 12004KT 26/18 A3017 RMK A01 T02640175  RH  058%=      5-min Rain = 0
KPD1 140328Z 11005KT 26/18 A3017 RMK A01 T02640175  RH  058%=      5-min Rain = 0
KPD1 140329Z 10006KT 26/18 A3017 RMK A01 T02630175  RH  058%=      5-min Rain = 0
KPD1 140330Z 11005G11KT 26/18 A3017 RMK A01 T02630175  RH  058%=      5-min Rain = 0
KPD1 140331Z 11007KT 26/18 A3017 RMK A01 T02630175  RH  058%=      5-min Rain = 0
KPD1 140332Z 10007KT 26/18 A3017 RMK A01 T02630175  RH  059%=      5-min Rain = 0
KPD1 140333Z 12006KT 26/18 A3017 RMK A01 T02630175  RH  059%=      5-min Rain = 0
KPD1 140334Z 10005KT 26/18 A3017 RMK A01 T02620175  RH  059%=      5-min Rain = 0
KPD1 140335Z 10005KT 26/18 A3017 RMK A01 T02620175  RH  059%=      5-min Rain = 0
KPD1 140336Z 12004KT 26/18 A3017 RMK A01 T02620175  RH  059%=      5-min Rain = 0
KPD1 140337Z 13004KT 26/18 A3017 RMK A01 T02610175  RH  059%=      5-min Rain = 0
KPD1 140338Z 11003KT 26/18 A3017 RMK A01 T02610175  RH  059%=      5-min Rain = 0
KPD1 140339Z 11004KT 26/18 A3017 RMK A01 T02610175  RH  059%=      5-min Rain = 0
KPD1 140340Z 11005KT 26/18 A3017 RMK A01 T02600175  RH  059%=      5-min Rain = 0
KPD1 140341Z 12005KT 26/18 A3017 RMK A01 T02600175  RH  059%=      5-min Rain = 0
KPD1 140342Z 12005KT 26/18 A3017 RMK A01 T02600175  RH  059%=      5-min Rain = 0
KPD1 140343Z 11004KT 26/18 A3017 RMK A01 T02600175  RH  060%=      5-min Rain = 0
KPD1 140344Z 11005KT 26/18 A3017 RMK A01 T02600175  RH  060%=      5-min Rain = 0
KPD1 140345Z 11004KT 26/18 A3017 RMK A01 T02590175  RH  060%=      5-min Rain = 0
KPD1 140346Z 10004KT 26/18 A3017 RMK A01 T02590175  RH  060%=      5-min Rain = 0
KPD1 140347Z 10004KT 26/18 A3017 RMK A01 T02580175  RH  060%=      5-min Rain = 0
KPD1 140348Z 10004KT 26/18 A3017 RMK A01 T02580175  RH  060%=      5-min Rain = 0
KPD1 140349Z 10005KT 26/18 A3017 RMK A01 T02570175  RH  061%=      5-min Rain = 0
KPD1 140350Z 11005KT 26/18 A3017 RMK A01 T02560175  RH  061%=      5-min Rain = 0
KPD1 140351Z 11006KT 26/18 A3017 RMK A01 T02560175  RH  061%=      5-min Rain = 0
KPD1 140352Z 12005KT 26/18 A3016 RMK A01 T02550175  RH  061%=      5-min Rain = 0
KPD1 140353Z 13007KT 26/18 A3016 RMK A01 T02550175  RH  061%=      5-min Rain = 0
KPD1 140354Z 13006KT 26/18 A3016 RMK A01 T02560175  RH  061%=      5-min Rain = 0
KPD1 140355Z 13005KT 26/18 A3016 RMK A01 T02560175  RH  061%=      5-min Rain = 0
KPD1 140356Z 11005KT 26/17 A3016 RMK A01 T02560174  RH  060%=      5-min Rain = 0
KPD1 140357Z 12006KT 26/18 A3016 RMK A01 T02570175  RH  061%=      5-min Rain = 0
KPD1 140358Z 14005G10KT 26/18 A3016 RMK A01 T02570175  RH  061%=      5-min Rain = 0
KPD1 140359Z 12006KT 26/17 A3016 RMK A01 T02560174  RH  060%=      5-min Rain = 0
KPD1 140400Z 12006KT 26/17 A3016 RMK A01 T02570174  RH  060%=      5-min Rain = 0
KPD1 140401Z 14003KT 26/17 A3016 RMK A01 T02570174  RH  060%=      5-min Rain = 0
KPD1 140402Z 14003KT 26/17 A3016 RMK A01 T02570174  RH  060%=      5-min Rain = 0
KPD1 140403Z 11002KT 26/17 A3016 RMK A01 T02570174  RH  060%=      5-min Rain = 0
KPD1 140404Z 11001KT 26/17 A3017 RMK A01 T02560174  RH  060%=      5-min Rain = 0
KPD1 140405Z 10004KT 26/17 A3017 RMK A01 T02560174  RH  060%=      5-min Rain = 0
KPD1 140406Z 12007KT 26/17 A3017 RMK A01 T02560174  RH  060%=      5-min Rain = 0
KPD1 140407Z 14003KT 26/17 A3017 RMK A01 T02560174  RH  060%=      5-min Rain = 0
KPD1 140408Z 13004KT 26/17 A3017 RMK A01 T02560174  RH  060%=      5-min Rain = 0
KPD1 140409Z 13002KT 26/17 A3017 RMK A01 T02560173  RH  060%=      5-min Rain = 0
KPD1 140410Z 14002KT 26/17 A3017 RMK A01 T02560173  RH  060%=      5-min Rain = 0
KPD1 140411Z 14003KT 26/17 A3017 RMK A01 T02560174  RH  060%=      5-min Rain = 0
KPD1 140412Z 11005G10KT 26/17 A3017 RMK A01 T02550173  RH  060%=      5-min Rain = 0
KPD1 140413Z 12005KT 26/17 A3017 RMK A01 T02550173  RH  060%=      5-min Rain = 0
KPD1 140414Z 12002KT 26/17 A3018 RMK A01 T02560173  RH  060%=      5-min Rain = 0
KPD1 140415Z 11003KT 26/17 A3018 RMK A01 T02570174  RH  060%=      5-min Rain = 0
KPD1 140416Z 10004KT 26/17 A3018 RMK A01 T02570174  RH  060%=      5-min Rain = 0
KPD1 140417Z 12005KT 26/17 A3018 RMK A01 T02560173  RH  060%=      5-min Rain = 0
KPD1 140418Z 12005KT 26/17 A3018 RMK A01 T02570174  RH  060%=      5-min Rain = 0
KPD1 140419Z 12007KT 26/17 A3018 RMK A01 T02560174  RH  060%=      5-min Rain = 0
KPD1 140420Z 10008KT 26/17 A3018 RMK A01 T02560174  RH  060%=      5-min Rain = 0
KPD1 140421Z 12006KT 26/17 A3018 RMK A01 T02560173  RH  060%=      5-min Rain = 0
KPD1 140422Z 12005G10KT 26/17 A3018 RMK A01 T02560173  RH  060%=      5-min Rain = 0
KPD1 140423Z 10008KT 26/17 A3018 RMK A01 T02560174  RH  060%=      5-min Rain = 0
KPD1 140424Z 12005KT 26/17 A3018 RMK A01 T02560174  RH  060%=      5-min Rain = 0
KPD1 140425Z 10005KT 26/17 A3018 RMK A01 T02560174  RH  060%=      5-min Rain = 0
KPD1 140426Z 11007KT 26/17 A3018 RMK A01 T02550173  RH  060%=      5-min Rain = 0
KPD1 140427Z 11006KT 26/17 A3018 RMK A01 T02550173  RH  060%=      5-min Rain = 0
KPD1 140428Z 13007KT 26/17 A3018 RMK A01 T02550173  RH  061%=      5-min Rain = 0
KPD1 140429Z 12007KT 26/17 A3018 RMK A01 T02550173  RH  061%=      5-min Rain = 0
KPD1 140430Z 11006KT 26/17 A3018 RMK A01 T02550173  RH  061%=      5-min Rain = 0
KPD1 140431Z 12004KT 26/17 A3018 RMK A01 T02550174  RH  061%=      5-min Rain = 0
KPD1 140432Z 10005KT 26/17 A3018 RMK A01 T02550173  RH  061%=      5-min Rain = 0
KPD1 140433Z 11007G12KT 26/17 A3018 RMK A01 T02550173  RH  061%=      5-min Rain = 0
KPD1 140434Z 12005KT 26/17 A3018 RMK A01 T02550173  RH  061%=      5-min Rain = 0
KPD1 140435Z 13008KT 25/17 A3018 RMK A01 T02540173  RH  061%=      5-min Rain = 0
KPD1 140436Z 12004KT 25/17 A3018 RMK A01 T02540173  RH  061%=      5-min Rain = 0
KPD1 140437Z 10004G9KT 26/17 A3018 RMK A01 T02550173  RH  061%=      5-min Rain = 0
KPD1 140438Z 11005KT 26/17 A3018 RMK A01 T02550173  RH  061%=      5-min Rain = 0
KPD1 140439Z 10003KT 25/17 A3019 RMK A01 T02540173  RH  061%=      5-min Rain = 0
KPD1 140440Z 10004KT 25/17 A3019 RMK A01 T02540173  RH  061%=      5-min Rain = 0
KPD1 140441Z 11007KT 25/17 A3019 RMK A01 T02530173  RH  061%=      5-min Rain = 0
KPD1 140442Z 10005KT 25/17 A3019 RMK A01 T02530173  RH  061%=      5-min Rain = 0
KPD1 140443Z 12005KT 25/17 A3019 RMK A01 T02530173  RH  061%=      5-min Rain = 0
KPD1 140444Z 10006KT 25/17 A3019 RMK A01 T02520173  RH  061%=      5-min Rain = 0
KPD1 140445Z 10005KT 25/17 A3019 RMK A01 T02520173  RH  061%=      5-min Rain = 0
KPD1 140446Z 12004KT 25/17 A3019 RMK A01 T02520173  RH  062%=      5-min Rain = 0
KPD1 140447Z 11006KT 25/17 A3019 RMK A01 T02510173  RH  062%=      5-min Rain = 0
KPD1 140448Z 11005KT 25/17 A3019 RMK A01 T02510173  RH  062%=      5-min Rain = 0
KPD1 140449Z 10006KT 25/17 A3019 RMK A01 T02510173  RH  062%=      5-min Rain = 0
KPD1 140450Z 10007KT 25/17 A3019 RMK A01 T02510173  RH  062%=      5-min Rain = 0
KPD1 140451Z 11004KT 25/17 A3019 RMK A01 T02510173  RH  062%=      5-min Rain = 0
KPD1 140452Z 11005KT 25/17 A3019 RMK A01 T02500173  RH  062%=      5-min Rain = 0
KPD1 140453Z 11006KT 25/17 A3019 RMK A01 T02500173  RH  062%=      5-min Rain = 0
KPD1 140454Z 11006KT 25/17 A3019 RMK A01 T02500173  RH  062%=      5-min Rain = 0
KPD1 140455Z 09006KT 25/17 A3019 RMK A01 T02500173  RH  062%=      5-min Rain = 0
KPD1 140456Z 10004KT 25/17 A3019 RMK A01 T02500173  RH  062%=      5-min Rain = 0
KPD1 140457Z 12004KT 25/17 A3019 RMK A01 T02500172  RH  062%=      5-min Rain = 0
KPD1 140458Z 10005KT 25/17 A3019 RMK A01 T02490173  RH  062%=      5-min Rain = 0
KPD1 140459Z 10005KT 25/17 A3019 RMK A01 T02490172  RH  063%=      5-min Rain = 0

Page generated in 0.0783 seconds.